INDIA1 EGKK-VIDP
Flight info
| Callsign | INDIA1 |
|---|---|
| Flight time | N/A |
| Altitude | 33000 |
| Route | FRAN1M FRANE M604 TOVGU M84 CLN L608 SASKI L179 COA Y50 FERDI UL607 SPI Q50 ARCKY L607 ELMEM N606 GIRIS Z905 VIC N503 CHI L612 KAPPO L995 TIGRA UT75 BEDEX UL869 KRK UA14 ARA UL612 SIT UL607 PAXIS DCT CVO L315 HGD M872 SILKA J852 WEJ J874 GAS G662 KSA M440 TULBU N881 RASKI L301 KARKU W103 KS W63 AAE W58 UUD A347 BUBNU |
| Aircraft | B77W/H-SADE1E2E3FGHIJ2J3J4J5J6J7M1M3P1P2P3RUWXYZ/LB1D1 |
Departure
| Time | 2026-04-13 15:30 |
|---|---|
| Airport | London Gatwick Airport (EGKK) |
Arrival
| Time | N/A |
|---|---|
| Airport | Indira Gandhi International Airport (VIDP) |
| Time | Latitude | Longitude | Altitude | Speed | Heading |
|---|---|---|---|---|---|
| 2026-04-13 15:06 | 51.15129 | -0.19454 | 195 ft | 0 kts | 77° |
| 2026-04-13 15:18 | 51.15127 | -0.19475 | 219 ft | 2 kts | 77° |
| 2026-04-13 15:18 | 51.15123 | -0.19501 | 211 ft | 2 kts | 77° |
| 2026-04-13 15:18 | 51.15120 | -0.19526 | 217 ft | 2 kts | 86° |
| 2026-04-13 15:19 | 51.15121 | -0.19552 | 216 ft | 2 kts | 102° |
| 2026-04-13 15:19 | 51.15126 | -0.19577 | 221 ft | 2 kts | 118° |
| 2026-04-13 15:19 | 51.15136 | -0.19596 | 223 ft | 2 kts | 166° |
| 2026-04-13 15:19 | 51.15144 | -0.19600 | 220 ft | 0 kts | 167° |
| 2026-04-13 15:21 | 51.15138 | -0.19597 | 223 ft | 2 kts | 167° |
| 2026-04-13 15:21 | 51.15115 | -0.19589 | 221 ft | 5 kts | 168° |
| 2026-04-13 15:22 | 51.15069 | -0.19573 | 214 ft | 8 kts | 166° |
| 2026-04-13 15:22 | 51.15032 | -0.19512 | 217 ft | 8 kts | 104° |
| 2026-04-13 15:22 | 51.15038 | -0.19422 | 216 ft | 8 kts | 79° |
| 2026-04-13 15:22 | 51.15049 | -0.19333 | 217 ft | 8 kts | 78° |
| 2026-04-13 15:23 | 51.15060 | -0.19244 | 213 ft | 8 kts | 78° |
| 2026-04-13 15:23 | 51.15071 | -0.19155 | 210 ft | 8 kts | 78° |
| 2026-04-13 15:23 | 51.15083 | -0.19066 | 215 ft | 8 kts | 78° |
| 2026-04-13 15:23 | 51.15095 | -0.18977 | 213 ft | 8 kts | 77° |
| 2026-04-13 15:24 | 51.15107 | -0.18888 | 215 ft | 8 kts | 77° |
| 2026-04-13 15:24 | 51.15125 | -0.18770 | 215 ft | 14 kts | 76° |
| 2026-04-13 15:24 | 51.15149 | -0.18600 | 214 ft | 16 kts | 77° |
| 2026-04-13 15:24 | 51.15172 | -0.18427 | 215 ft | 16 kts | 79° |
| 2026-04-13 15:25 | 51.15192 | -0.18253 | 216 ft | 16 kts | 79° |
| 2026-04-13 15:25 | 51.15213 | -0.18083 | 213 ft | 16 kts | 79° |
| 2026-04-13 15:25 | 51.15237 | -0.17911 | 216 ft | 16 kts | 78° |
| 2026-04-13 15:25 | 51.15260 | -0.17739 | 220 ft | 16 kts | 78° |
| 2026-04-13 15:26 | 51.15284 | -0.17567 | 210 ft | 16 kts | 77° |
| 2026-04-13 15:26 | 51.15298 | -0.17400 | 216 ft | 14 kts | 103° |
| 2026-04-13 15:26 | 51.15249 | -0.17268 | 218 ft | 14 kts | 92° |
| 2026-04-13 15:26 | 51.15264 | -0.17110 | 218 ft | 14 kts | 79° |
| 2026-04-13 15:27 | 51.15284 | -0.16954 | 210 ft | 13 kts | 76° |
| 2026-04-13 15:27 | 51.15278 | -0.16835 | 214 ft | 9 kts | 135° |
| 2026-04-13 15:27 | 51.15261 | -0.16824 | 221 ft | 0 kts | 167° |
| 2026-04-13 15:28 | 51.15241 | -0.16817 | 219 ft | 9 kts | 168° |
| 2026-04-13 15:29 | 51.15180 | -0.16796 | 216 ft | 9 kts | 169° |
| 2026-04-13 15:29 | 51.15125 | -0.16823 | 222 ft | 8 kts | 233° |
| 2026-04-13 15:29 | 51.15107 | -0.16915 | 216 ft | 9 kts | 258° |
| 2026-04-13 15:29 | 51.15085 | -0.17076 | 221 ft | 34 kts | 257° |
| 2026-04-13 15:30 | 51.14968 | -0.17927 | 221 ft | 122 kts | 257° |
| 2026-04-13 15:30 | 51.14728 | -0.19656 | 237 ft | 194 kts | 257° |
| 2026-04-13 15:30 | 51.14415 | -0.21812 | 947 ft | 201 kts | 258° |
| 2026-04-13 15:30 | 51.14142 | -0.23953 | 2059 ft | 199 kts | 257° |
| 2026-04-13 15:31 | 51.13856 | -0.26242 | 2496 ft | 221 kts | 257° |
| 2026-04-13 15:31 | 51.13773 | -0.28692 | 3180 ft | 228 kts | 281° |
| 2026-04-13 15:31 | 51.14358 | -0.30682 | 3741 ft | 234 kts | 307° |
| 2026-04-13 15:31 | 51.15676 | -0.32249 | 4022 ft | 247 kts | 337° |
| 2026-04-13 15:32 | 51.17398 | -0.32488 | 3951 ft | 252 kts | 14° |
| 2026-04-13 15:32 | 51.18907 | -0.31083 | 4021 ft | 264 kts | 50° |
| 2026-04-13 15:32 | 51.19717 | -0.28464 | 4007 ft | 264 kts | 81° |
| 2026-04-13 15:32 | 51.19943 | -0.25601 | 4008 ft | 265 kts | 84° |
| 2026-04-13 15:33 | 51.20173 | -0.22687 | 4002 ft | 264 kts | 83° |
| 2026-04-13 15:33 | 51.20424 | -0.19790 | 4003 ft | 264 kts | 82° |
| 2026-04-13 15:33 | 51.20766 | -0.16908 | 3990 ft | 265 kts | 79° |
| 2026-04-13 15:34 | 51.21404 | -0.12104 | 4518 ft | 267 kts | 79° |
| 2026-04-13 15:34 | 51.21914 | -0.08261 | 5033 ft | 270 kts | 79° |
| 2026-04-13 15:34 | 51.22308 | -0.05274 | 4988 ft | 270 kts | 79° |
| 2026-04-13 15:34 | 51.22691 | -0.02346 | 5013 ft | 270 kts | 79° |
| 2026-04-13 15:35 | 51.23068 | 0.00553 | 5029 ft | 271 kts | 79° |
| 2026-04-13 15:35 | 51.23452 | 0.03511 | 5043 ft | 274 kts | 79° |
| 2026-04-13 15:35 | 51.23839 | 0.06500 | 5043 ft | 277 kts | 79° |
| 2026-04-13 15:35 | 51.24106 | 0.08538 | 5025 ft | 277 kts | 79° |
| 2026-04-13 15:36 | 51.24617 | 0.12506 | 5027 ft | 274 kts | 79° |
| 2026-04-13 15:36 | 51.24872 | 0.14483 | 5011 ft | 272 kts | 79° |
| 2026-04-13 15:36 | 51.25248 | 0.17425 | 5011 ft | 270 kts | 79° |
| 2026-04-13 15:36 | 51.25542 | 0.20358 | 5002 ft | 266 kts | 91° |
| 2026-04-13 15:37 | 51.25433 | 0.23341 | 4929 ft | 273 kts | 98° |
| 2026-04-13 15:37 | 51.25197 | 0.26378 | 4926 ft | 277 kts | 99° |
| 2026-04-13 15:37 | 51.24949 | 0.29437 | 4911 ft | 276 kts | 98° |
| 2026-04-13 15:37 | 51.24717 | 0.32466 | 4891 ft | 273 kts | 98° |
| 2026-04-13 15:38 | 51.24501 | 0.35421 | 4873 ft | 271 kts | 98° |
| 2026-04-13 15:38 | 51.24325 | 0.37914 | 4897 ft | 271 kts | 98° |
| 2026-04-13 15:38 | 51.24111 | 0.41001 | 4899 ft | 272 kts | 98° |
| 2026-04-13 15:38 | 51.23909 | 0.43965 | 4888 ft | 273 kts | 97° |
| 2026-04-13 15:39 | 51.23705 | 0.46981 | 4878 ft | 273 kts | 98° |
| 2026-04-13 15:39 | 51.23499 | 0.49997 | 4896 ft | 272 kts | 97° |
| 2026-04-13 15:39 | 51.23316 | 0.53008 | 4871 ft | 270 kts | 91° |
| 2026-04-13 15:39 | 51.23709 | 0.55852 | 4903 ft | 270 kts | 61° |
| 2026-04-13 15:40 | 51.24940 | 0.58127 | 4914 ft | 275 kts | 33° |
| 2026-04-13 15:40 | 51.26689 | 0.59348 | 4918 ft | 275 kts | 9° |
| 2026-04-13 15:40 | 51.28580 | 0.59636 | 4919 ft | 272 kts | 1° |
| 2026-04-13 15:40 | 51.30477 | 0.59795 | 4929 ft | 273 kts | 2° |
| 2026-04-13 15:41 | 51.32341 | 0.60302 | 5271 ft | 275 kts | 13° |
| 2026-04-13 15:41 | 51.34194 | 0.61065 | 5880 ft | 275 kts | 13° |
| 2026-04-13 15:41 | 51.36074 | 0.61831 | 6003 ft | 281 kts | 13° |
| 2026-04-13 15:41 | 51.37975 | 0.62577 | 6014 ft | 281 kts | 12° |
| 2026-04-13 15:42 | 51.39874 | 0.63307 | 6124 ft | 280 kts | 12° |
| 2026-04-13 15:42 | 51.41765 | 0.64022 | 6880 ft | 281 kts | 12° |
| 2026-04-13 15:42 | 51.43674 | 0.64742 | 7765 ft | 281 kts | 12° |
| 2026-04-13 15:42 | 51.45595 | 0.65465 | 8585 ft | 286 kts | 12° |
| 2026-04-13 15:43 | 51.47545 | 0.66200 | 9391 ft | 290 kts | 12° |
| 2026-04-13 15:43 | 51.49498 | 0.66936 | 10168 ft | 293 kts | 12° |
| 2026-04-13 15:43 | 51.51529 | 0.67702 | 10656 ft | 310 kts | 12° |
| 2026-04-13 15:43 | 51.53717 | 0.68528 | 10866 ft | 336 kts | 12° |
| 2026-04-13 15:44 | 51.56085 | 0.69422 | 11068 ft | 362 kts | 12° |
| 2026-04-13 15:44 | 51.58598 | 0.70373 | 11567 ft | 377 kts | 13° |
| 2026-04-13 15:44 | 51.61184 | 0.71355 | 12288 ft | 386 kts | 13° |
| 2026-04-13 15:44 | 51.63818 | 0.72354 | 13130 ft | 391 kts | 13° |
| 2026-04-13 15:45 | 51.65188 | 0.72874 | 13580 ft | 393 kts | 13° |
| 2026-04-13 15:45 | 51.67873 | 0.73895 | 14378 ft | 398 kts | 13° |
| 2026-04-13 15:45 | 51.70571 | 0.74992 | 15057 ft | 401 kts | 18° |
| 2026-04-13 15:45 | 51.73030 | 0.77210 | 15562 ft | 411 kts | 41° |
| 2026-04-13 15:46 | 51.74887 | 0.80734 | 16277 ft | 414 kts | 61° |
| 2026-04-13 15:46 | 51.76160 | 0.84898 | 16945 ft | 417 kts | 67° |
| 2026-04-13 15:46 | 51.77375 | 0.89194 | 17583 ft | 424 kts | 67° |
| 2026-04-13 15:46 | 51.78598 | 0.93507 | 18334 ft | 429 kts | 67° |
| 2026-04-13 15:47 | 51.79859 | 0.97892 | 18941 ft | 432 kts | 66° |
| 2026-04-13 15:47 | 51.81153 | 1.02331 | 19003 ft | 439 kts | 66° |
| 2026-04-13 15:47 | 51.82457 | 1.06781 | 19008 ft | 437 kts | 66° |
| 2026-04-13 15:47 | 51.83606 | 1.11281 | 18993 ft | 430 kts | 77° |
| 2026-04-13 15:48 | 51.83988 | 1.16044 | 18999 ft | 426 kts | 94° |
| 2026-04-13 15:48 | 51.83621 | 1.20765 | 19013 ft | 421 kts | 108° |
| 2026-04-13 15:48 | 51.82698 | 1.25219 | 19011 ft | 417 kts | 114° |
| 2026-04-13 15:48 | 51.81700 | 1.29635 | 19009 ft | 418 kts | 114° |
| 2026-04-13 15:49 | 51.80715 | 1.34023 | 19008 ft | 420 kts | 113° |
| 2026-04-13 15:49 | 51.79731 | 1.38473 | 19012 ft | 421 kts | 113° |
| 2026-04-13 15:49 | 51.78758 | 1.42932 | 19010 ft | 421 kts | 113° |
| 2026-04-13 15:49 | 51.77792 | 1.47390 | 19040 ft | 422 kts | 113° |
| 2026-04-13 15:50 | 51.76825 | 1.51863 | 19722 ft | 422 kts | 113° |
| 2026-04-13 15:50 | 51.75855 | 1.56347 | 20520 ft | 423 kts | 113° |
| 2026-04-13 15:50 | 51.74876 | 1.60845 | 21224 ft | 426 kts | 114° |
| 2026-04-13 15:50 | 51.73879 | 1.65382 | 21842 ft | 430 kts | 114° |
| 2026-04-13 15:51 | 51.72865 | 1.69944 | 22476 ft | 434 kts | 115° |
| 2026-04-13 15:51 | 51.71838 | 1.74542 | 23132 ft | 437 kts | 115° |
| 2026-04-13 15:51 | 51.70803 | 1.79173 | 23746 ft | 440 kts | 115° |
| 2026-04-13 15:51 | 51.69773 | 1.83781 | 24274 ft | 443 kts | 115° |
| 2026-04-13 15:52 | 51.68725 | 1.88460 | 24797 ft | 445 kts | 116° |
| 2026-04-13 15:52 | 51.67670 | 1.93167 | 25322 ft | 448 kts | 116° |
| 2026-04-13 15:52 | 51.66610 | 1.97888 | 25816 ft | 450 kts | 116° |
| 2026-04-13 15:52 | 51.65539 | 2.02651 | 26309 ft | 453 kts | 116° |
| 2026-04-13 15:53 | 51.64461 | 2.07429 | 26809 ft | 455 kts | 116° |
| 2026-04-13 15:53 | 51.63374 | 2.12231 | 27305 ft | 457 kts | 116° |
| 2026-04-13 15:53 | 51.62280 | 2.17061 | 27767 ft | 460 kts | 117° |
| 2026-04-13 15:53 | 51.61181 | 2.21904 | 28212 ft | 462 kts | 117° |
| 2026-04-13 15:54 | 51.60076 | 2.26779 | 28647 ft | 464 kts | 117° |
| 2026-04-13 15:54 | 51.58963 | 2.31671 | 29050 ft | 467 kts | 117° |
| 2026-04-13 15:54 | 51.57844 | 2.36575 | 29431 ft | 469 kts | 117° |
| 2026-04-13 15:54 | 51.56738 | 2.41449 | 29809 ft | 470 kts | 117° |
| 2026-04-13 15:55 | 51.55616 | 2.46399 | 30168 ft | 472 kts | 117° |
| 2026-04-13 15:55 | 51.54489 | 2.51357 | 30437 ft | 473 kts | 117° |
| 2026-04-13 15:55 | 51.53350 | 2.56332 | 30717 ft | 474 kts | 117° |
| 2026-04-13 15:55 | 51.52205 | 2.61301 | 31038 ft | 474 kts | 117° |
| 2026-04-13 15:56 | 51.51058 | 2.66268 | 31341 ft | 475 kts | 117° |
| 2026-04-13 15:56 | 51.49907 | 2.71242 | 31622 ft | 476 kts | 117° |
| 2026-04-13 15:56 | 51.48749 | 2.76237 | 31879 ft | 477 kts | 117° |
| 2026-04-13 15:56 | 51.47590 | 2.81229 | 32145 ft | 478 kts | 117° |
| 2026-04-13 15:57 | 51.46427 | 2.86232 | 32414 ft | 479 kts | 117° |
| 2026-04-13 15:57 | 51.45260 | 2.91239 | 32677 ft | 480 kts | 117° |
| 2026-04-13 15:57 | 51.44087 | 2.96261 | 32951 ft | 481 kts | 116° |
| 2026-04-13 15:57 | 51.42912 | 3.01283 | 33227 ft | 481 kts | 116° |
| 2026-04-13 15:58 | 51.41732 | 3.06311 | 33486 ft | 482 kts | 116° |
| 2026-04-13 15:58 | 51.40547 | 3.11350 | 33749 ft | 482 kts | 116° |
| 2026-04-13 15:58 | 51.39371 | 3.16314 | 33999 ft | 483 kts | 116° |
| 2026-04-13 15:58 | 51.38179 | 3.21334 | 34218 ft | 483 kts | 116° |
| 2026-04-13 15:59 | 51.36981 | 3.26362 | 34444 ft | 483 kts | 116° |
| 2026-04-13 15:59 | 51.35571 | 3.31156 | 34539 ft | 474 kts | 129° |
| 2026-04-13 15:59 | 51.33457 | 3.35109 | 34651 ft | 464 kts | 143° |
| 2026-04-13 15:59 | 51.30882 | 3.38133 | 34849 ft | 456 kts | 154° |
| 2026-04-13 16:00 | 51.25054 | 3.41979 | 34975 ft | 455 kts | 162° |
| 2026-04-13 16:00 | 51.19167 | 3.45703 | 34985 ft | 453 kts | 161° |
| 2026-04-13 16:01 | 51.13351 | 3.49465 | 34983 ft | 450 kts | 161° |
| 2026-04-13 16:01 | 51.07563 | 3.53207 | 34983 ft | 447 kts | 161° |
| 2026-04-13 16:02 | 51.01792 | 3.56921 | 34985 ft | 446 kts | 161° |
| 2026-04-13 16:02 | 50.96065 | 3.60596 | 34998 ft | 447 kts | 161° |
| 2026-04-13 16:03 | 50.90651 | 3.65414 | 34989 ft | 457 kts | 139° |
| 2026-04-13 16:03 | 50.88610 | 3.69344 | 34990 ft | 467 kts | 128° |
| 2026-04-13 16:03 | 50.87101 | 3.73943 | 34977 ft | 478 kts | 114° |
| 2026-04-13 16:04 | 50.86398 | 3.79157 | 34995 ft | 488 kts | 102° |
| 2026-04-13 16:04 | 50.86009 | 3.84496 | 34968 ft | 487 kts | 105° |
| 2026-04-13 16:04 | 50.84450 | 3.94851 | 34978 ft | 482 kts | 112° |
| 2026-04-13 16:05 | 50.82504 | 4.04945 | 34965 ft | 482 kts | 112° |
| 2026-04-13 16:05 | 50.80576 | 4.15120 | 34957 ft | 481 kts | 112° |
| 2026-04-13 16:06 | 50.78718 | 4.25274 | 34956 ft | 479 kts | 111° |
| 2026-04-13 16:06 | 50.76876 | 4.35385 | 34956 ft | 478 kts | 112° |
| 2026-04-13 16:07 | 50.75033 | 4.45393 | 34967 ft | 477 kts | 112° |
| 2026-04-13 16:07 | 50.73167 | 4.55447 | 34958 ft | 477 kts | 112° |
| 2026-04-13 16:08 | 50.71270 | 4.65504 | 34965 ft | 478 kts | 112° |
| 2026-04-13 16:08 | 50.69305 | 4.75549 | 34967 ft | 480 kts | 113° |
| 2026-04-13 16:09 | 50.67328 | 4.85642 | 34964 ft | 482 kts | 112° |
| 2026-04-13 16:09 | 50.65348 | 4.95669 | 34973 ft | 483 kts | 113° |
| 2026-04-13 16:10 | 50.63281 | 5.05757 | 34979 ft | 484 kts | 114° |
| 2026-04-13 16:10 | 50.61197 | 5.15836 | 34978 ft | 484 kts | 113° |
| 2026-04-13 16:11 | 50.59111 | 5.25935 | 34991 ft | 484 kts | 114° |
| 2026-04-13 16:11 | 50.57021 | 5.36012 | 34986 ft | 484 kts | 114° |
| 2026-04-13 16:12 | 50.54938 | 5.46010 | 34981 ft | 484 kts | 114° |
| 2026-04-13 16:12 | 50.52834 | 5.56060 | 34981 ft | 483 kts | 114° |
| 2026-04-13 16:13 | 50.50158 | 5.65607 | 34983 ft | 473 kts | 125° |
| 2026-04-13 16:13 | 50.46552 | 5.74149 | 34982 ft | 469 kts | 130° |
| 2026-04-13 16:14 | 50.42929 | 5.82601 | 34981 ft | 469 kts | 129° |
| 2026-04-13 16:14 | 50.39315 | 5.91132 | 34963 ft | 469 kts | 129° |
| 2026-04-13 16:15 | 50.35695 | 5.99647 | 34956 ft | 469 kts | 129° |
| 2026-04-13 16:15 | 50.32110 | 6.08184 | 34954 ft | 471 kts | 124° |
| 2026-04-13 16:16 | 50.29561 | 6.17672 | 34963 ft | 481 kts | 112° |
| 2026-04-13 16:16 | 50.28306 | 6.28032 | 34955 ft | 488 kts | 103° |
| 2026-04-13 16:17 | 50.27297 | 6.38556 | 34935 ft | 487 kts | 105° |
| 2026-04-13 16:17 | 50.26162 | 6.48936 | 34941 ft | 486 kts | 105° |
| 2026-04-13 16:18 | 50.25010 | 6.59355 | 34926 ft | 487 kts | 105° |
| 2026-04-13 16:18 | 50.23865 | 6.69780 | 34930 ft | 486 kts | 105° |
| 2026-04-13 16:19 | 50.22715 | 6.80187 | 34929 ft | 485 kts | 105° |
| 2026-04-13 16:19 | 50.21824 | 6.90600 | 34941 ft | 489 kts | 100° |
| 2026-04-13 16:20 | 50.21314 | 7.01026 | 34931 ft | 490 kts | 99° |
| 2026-04-13 16:20 | 50.20775 | 7.11634 | 34941 ft | 490 kts | 100° |
| 2026-04-13 16:21 | 50.20194 | 7.22251 | 34928 ft | 491 kts | 100° |
| 2026-04-13 16:21 | 50.19417 | 7.32858 | 34943 ft | 489 kts | 106° |
| 2026-04-13 16:22 | 50.17567 | 7.42970 | 34930 ft | 484 kts | 114° |
| 2026-04-13 16:23 | 50.14325 | 7.57816 | 34939 ft | 483 kts | 114° |
| 2026-04-13 16:23 | 50.12554 | 7.66098 | 34929 ft | 484 kts | 113° |
| 2026-04-13 16:24 | 50.10435 | 7.76036 | 34938 ft | 484 kts | 113° |
| 2026-04-13 16:24 | 50.08276 | 7.85992 | 34933 ft | 483 kts | 116° |
| 2026-04-13 16:25 | 50.05357 | 7.95286 | 34941 ft | 473 kts | 127° |
| 2026-04-13 16:25 | 50.01682 | 8.03677 | 34932 ft | 471 kts | 129° |
| 2026-04-13 16:26 | 49.98251 | 8.11436 | 34943 ft | 471 kts | 129° |
| 2026-04-13 16:26 | 49.94567 | 8.19850 | 34928 ft | 472 kts | 129° |
| 2026-04-13 16:27 | 49.90898 | 8.28248 | 34943 ft | 472 kts | 129° |
| 2026-04-13 16:27 | 49.87200 | 8.36676 | 34926 ft | 472 kts | 129° |
| 2026-04-13 16:28 | 49.83136 | 8.44601 | 34933 ft | 466 kts | 140° |
| 2026-04-13 16:28 | 49.78391 | 8.51375 | 34939 ft | 464 kts | 142° |
| 2026-04-13 16:29 | 49.73524 | 8.57909 | 34929 ft | 459 kts | 151° |
| 2026-04-13 16:29 | 49.67863 | 8.61977 | 34938 ft | 450 kts | 167° |
| 2026-04-13 16:30 | 49.61738 | 8.63782 | 34933 ft | 448 kts | 174° |
| 2026-04-13 16:30 | 49.55568 | 8.65389 | 34938 ft | 449 kts | 173° |
| 2026-04-13 16:31 | 49.49409 | 8.67121 | 34938 ft | 451 kts | 170° |
| 2026-04-13 16:31 | 49.43374 | 8.69994 | 34937 ft | 456 kts | 161° |
| 2026-04-13 16:32 | 49.37624 | 8.74040 | 34936 ft | 458 kts | 159° |
| 2026-04-13 16:32 | 49.31837 | 8.78118 | 34922 ft | 457 kts | 159° |
| 2026-04-13 16:33 | 49.26028 | 8.82157 | 34919 ft | 457 kts | 159° |
| 2026-04-13 16:33 | 49.20234 | 8.86167 | 34915 ft | 457 kts | 159° |
| 2026-04-13 16:34 | 49.14426 | 8.90161 | 34966 ft | 460 kts | 156° |
| 2026-04-13 16:34 | 49.08563 | 8.94180 | 34936 ft | 463 kts | 156° |
| 2026-04-13 16:35 | 49.02696 | 8.98194 | 34920 ft | 465 kts | 156° |
| 2026-04-13 16:35 | 48.96777 | 9.02234 | 34928 ft | 466 kts | 156° |
| 2026-04-13 16:36 | 48.90853 | 9.06268 | 34913 ft | 466 kts | 156° |
| 2026-04-13 16:36 | 48.84923 | 9.10294 | 34909 ft | 466 kts | 157° |
| 2026-04-13 16:37 | 48.79048 | 9.14273 | 34924 ft | 465 kts | 157° |
| 2026-04-13 16:37 | 48.73139 | 9.18266 | 34920 ft | 464 kts | 157° |
| 2026-04-13 16:38 | 48.67248 | 9.22237 | 34902 ft | 463 kts | 157° |
| 2026-04-13 16:38 | 48.61360 | 9.26165 | 34906 ft | 462 kts | 159° |
| 2026-04-13 16:39 | 48.55353 | 9.29579 | 34918 ft | 461 kts | 160° |
| 2026-04-13 16:39 | 48.49333 | 9.32912 | 34910 ft | 460 kts | 160° |
| 2026-04-13 16:40 | 48.43362 | 9.36242 | 34904 ft | 460 kts | 160° |
| 2026-04-13 16:40 | 48.37356 | 9.39600 | 34907 ft | 460 kts | 160° |
| 2026-04-13 16:41 | 48.31348 | 9.42950 | 34906 ft | 460 kts | 160° |
| 2026-04-13 16:41 | 48.25571 | 9.47077 | 34900 ft | 461 kts | 149° |
| 2026-04-13 16:42 | 48.20362 | 9.52699 | 34884 ft | 462 kts | 141° |
| 2026-04-13 16:42 | 48.15517 | 9.59037 | 34882 ft | 461 kts | 140° |
| 2026-04-13 16:43 | 48.10724 | 9.65307 | 34877 ft | 460 kts | 140° |
| 2026-04-13 16:43 | 48.05884 | 9.71565 | 34888 ft | 459 kts | 141° |
| 2026-04-13 16:44 | 48.01042 | 9.77788 | 34880 ft | 458 kts | 141° |
| 2026-04-13 16:44 | 47.96203 | 9.83990 | 34878 ft | 457 kts | 141° |
| 2026-04-13 16:45 | 47.91397 | 9.90137 | 34879 ft | 456 kts | 141° |
| 2026-04-13 16:45 | 47.86590 | 9.96273 | 34878 ft | 455 kts | 141° |
| 2026-04-13 16:46 | 47.81692 | 10.02224 | 34891 ft | 454 kts | 144° |
| 2026-04-13 16:46 | 47.76618 | 10.07810 | 34888 ft | 453 kts | 144° |
| 2026-04-13 16:47 | 47.71542 | 10.13385 | 34872 ft | 454 kts | 144° |
| 2026-04-13 16:47 | 47.66469 | 10.18975 | 34879 ft | 454 kts | 144° |
| 2026-04-13 16:48 | 47.61427 | 10.24529 | 34880 ft | 454 kts | 144° |
| 2026-04-13 16:48 | 47.56344 | 10.30111 | 34882 ft | 454 kts | 144° |
| 2026-04-13 16:49 | 47.51268 | 10.35676 | 34871 ft | 454 kts | 144° |
| 2026-04-13 16:49 | 47.46183 | 10.41245 | 34865 ft | 454 kts | 144° |
| 2026-04-13 16:50 | 47.41100 | 10.46787 | 34865 ft | 454 kts | 145° |
| 2026-04-13 16:50 | 47.35674 | 10.51526 | 34859 ft | 452 kts | 152° |
| 2026-04-13 16:51 | 47.30109 | 10.55885 | 34828 ft | 453 kts | 152° |
| 2026-04-13 16:51 | 47.24591 | 10.60254 | 34836 ft | 453 kts | 152° |
| 2026-04-13 16:52 | 47.19013 | 10.64622 | 34836 ft | 453 kts | 152° |
| 2026-04-13 16:52 | 47.13252 | 10.68333 | 34851 ft | 453 kts | 160° |
| 2026-04-13 16:53 | 47.07297 | 10.71484 | 34846 ft | 454 kts | 159° |
| 2026-04-13 16:53 | 47.01355 | 10.74711 | 34827 ft | 456 kts | 159° |
| 2026-04-13 16:54 | 46.95441 | 10.78060 | 34851 ft | 456 kts | 158° |
| 2026-04-13 16:54 | 46.89515 | 10.81444 | 34863 ft | 458 kts | 158° |
| 2026-04-13 16:55 | 46.83587 | 10.84800 | 34883 ft | 460 kts | 159° |
| 2026-04-13 16:55 | 46.77612 | 10.88177 | 34883 ft | 461 kts | 158° |
| 2026-04-13 16:56 | 46.71813 | 10.92178 | 34909 ft | 461 kts | 154° |
| 2026-04-13 16:56 | 46.66048 | 10.96321 | 34889 ft | 462 kts | 154° |
| 2026-04-13 16:57 | 46.60311 | 11.00412 | 34880 ft | 461 kts | 154° |
| 2026-04-13 16:57 | 46.54542 | 11.04501 | 34865 ft | 461 kts | 154° |
| 2026-04-13 16:58 | 46.48774 | 11.08576 | 34879 ft | 461 kts | 154° |
| 2026-04-13 16:58 | 46.43006 | 11.12642 | 34928 ft | 461 kts | 154° |
| 2026-04-13 16:59 | 46.37223 | 11.16710 | 34929 ft | 461 kts | 154° |
| 2026-04-13 16:59 | 46.31480 | 11.20740 | 34948 ft | 461 kts | 154° |
| 2026-04-13 17:00 | 46.25685 | 11.24797 | 34930 ft | 462 kts | 154° |
| 2026-04-13 17:00 | 46.19888 | 11.28847 | 34933 ft | 463 kts | 154° |
| 2026-04-13 17:01 | 46.14093 | 11.32886 | 34900 ft | 463 kts | 154° |
| 2026-04-13 17:01 | 46.08278 | 11.36930 | 34909 ft | 463 kts | 155° |
| 2026-04-13 17:02 | 46.02468 | 11.40959 | 34868 ft | 464 kts | 155° |
| 2026-04-13 17:02 | 45.96698 | 11.44948 | 34867 ft | 462 kts | 155° |
| 2026-04-13 17:03 | 45.90916 | 11.48935 | 34856 ft | 460 kts | 155° |
| 2026-04-13 17:03 | 45.85154 | 11.52904 | 34859 ft | 459 kts | 155° |
| 2026-04-13 17:04 | 45.79388 | 11.56866 | 34858 ft | 459 kts | 155° |
| 2026-04-13 17:04 | 45.73621 | 11.60819 | 34839 ft | 460 kts | 155° |
| 2026-04-13 17:05 | 45.67830 | 11.64779 | 34818 ft | 461 kts | 155° |
| 2026-04-13 17:05 | 45.62184 | 11.69180 | 34837 ft | 463 kts | 147° |
| 2026-04-13 17:06 | 45.57037 | 11.74747 | 34833 ft | 465 kts | 143° |
| 2026-04-13 17:06 | 45.51940 | 11.80327 | 34841 ft | 465 kts | 144° |
| 2026-04-13 17:07 | 45.46780 | 11.85902 | 34837 ft | 465 kts | 144° |
| 2026-04-13 17:07 | 45.41623 | 11.91449 | 34816 ft | 464 kts | 144° |
| 2026-04-13 17:08 | 45.37328 | 11.96048 | 34824 ft | 464 kts | 144° |
| 2026-04-13 17:08 | 45.32155 | 12.01561 | 34817 ft | 464 kts | 144° |
| 2026-04-13 17:09 | 45.26993 | 12.07055 | 34811 ft | 463 kts | 144° |
| 2026-04-13 17:09 | 45.21824 | 12.12538 | 34813 ft | 463 kts | 144° |
| 2026-04-13 17:10 | 45.16691 | 12.17972 | 34807 ft | 464 kts | 144° |
| 2026-04-13 17:10 | 45.11532 | 12.23426 | 34803 ft | 464 kts | 145° |
| 2026-04-13 17:11 | 45.06346 | 12.28778 | 34808 ft | 464 kts | 149° |
| 2026-04-13 17:11 | 45.00783 | 12.33391 | 34811 ft | 464 kts | 152° |
| 2026-04-13 17:12 | 44.95176 | 12.37958 | 34804 ft | 465 kts | 152° |
| 2026-04-13 17:12 | 44.89581 | 12.42558 | 34794 ft | 465 kts | 152° |
| 2026-04-13 17:13 | 44.83992 | 12.47158 | 34793 ft | 465 kts | 152° |
| 2026-04-13 17:13 | 44.78432 | 12.51718 | 34787 ft | 465 kts | 152° |
| 2026-04-13 17:14 | 44.72832 | 12.56277 | 34784 ft | 464 kts | 152° |
| 2026-04-13 17:14 | 44.67235 | 12.60822 | 34785 ft | 463 kts | 152° |
| 2026-04-13 17:15 | 44.61686 | 12.65322 | 34779 ft | 463 kts | 152° |
| 2026-04-13 17:15 | 44.56101 | 12.69844 | 34776 ft | 462 kts | 152° |
| 2026-04-13 17:16 | 44.50525 | 12.74331 | 34771 ft | 462 kts | 153° |
| 2026-04-13 17:16 | 44.44935 | 12.78797 | 34768 ft | 462 kts | 153° |
| 2026-04-13 17:17 | 44.39352 | 12.83253 | 34765 ft | 462 kts | 153° |
| 2026-04-13 17:17 | 44.33753 | 12.87715 | 34759 ft | 463 kts | 153° |
| 2026-04-13 17:18 | 44.28185 | 12.92163 | 34756 ft | 463 kts | 152° |
| 2026-04-13 17:18 | 44.22586 | 12.96642 | 34755 ft | 464 kts | 152° |
| 2026-04-13 17:19 | 44.16975 | 13.01119 | 34755 ft | 465 kts | 153° |
| 2026-04-13 17:19 | 44.11355 | 13.05591 | 34753 ft | 465 kts | 153° |
| 2026-04-13 17:20 | 44.05732 | 13.10055 | 34747 ft | 466 kts | 153° |
| 2026-04-13 17:20 | 44.00097 | 13.14522 | 34750 ft | 466 kts | 153° |
| 2026-04-13 17:21 | 43.94500 | 13.18946 | 34748 ft | 466 kts | 153° |
| 2026-04-13 17:21 | 43.88826 | 13.23418 | 34745 ft | 466 kts | 153° |
| 2026-04-13 17:22 | 43.83218 | 13.27831 | 34747 ft | 466 kts | 153° |
| 2026-04-13 17:22 | 43.77551 | 13.32282 | 34743 ft | 466 kts | 153° |
| 2026-04-13 17:23 | 43.71913 | 13.36702 | 34746 ft | 466 kts | 153° |
| 2026-04-13 17:23 | 43.66273 | 13.41114 | 34747 ft | 466 kts | 153° |
| 2026-04-13 17:24 | 43.60724 | 13.45731 | 34743 ft | 468 kts | 147° |
| 2026-04-13 17:24 | 43.55778 | 13.51615 | 34743 ft | 472 kts | 138° |
| 2026-04-13 17:25 | 43.51452 | 13.58476 | 34747 ft | 475 kts | 134° |
| 2026-04-13 17:25 | 43.47227 | 13.65387 | 34732 ft | 475 kts | 134° |
| 2026-04-13 17:26 | 43.42926 | 13.72302 | 34733 ft | 475 kts | 135° |
| 2026-04-13 17:26 | 43.38608 | 13.79183 | 34729 ft | 475 kts | 135° |
| 2026-04-13 17:27 | 43.32104 | 13.89490 | 34727 ft | 476 kts | 135° |
| 2026-04-13 17:27 | 43.27753 | 13.96373 | 34728 ft | 477 kts | 135° |
| 2026-04-13 17:28 | 43.23397 | 14.03250 | 34717 ft | 477 kts | 135° |
| 2026-04-13 17:28 | 43.19035 | 14.10126 | 34717 ft | 478 kts | 135° |
| 2026-04-13 17:29 | 43.14701 | 14.16938 | 34720 ft | 478 kts | 135° |
| 2026-04-13 17:29 | 43.10319 | 14.23811 | 34712 ft | 478 kts | 135° |
| 2026-04-13 17:30 | 43.05939 | 14.30670 | 34715 ft | 478 kts | 135° |
| 2026-04-13 17:30 | 43.01551 | 14.37529 | 34713 ft | 479 kts | 135° |
| 2026-04-13 17:31 | 42.97160 | 14.44376 | 34711 ft | 479 kts | 135° |
| 2026-04-13 17:31 | 42.92789 | 14.51176 | 34711 ft | 479 kts | 135° |
| 2026-04-13 17:32 | 42.88393 | 14.57998 | 34709 ft | 479 kts | 135° |
| 2026-04-13 17:32 | 42.83985 | 14.64822 | 34711 ft | 479 kts | 135° |
| 2026-04-13 17:33 | 42.79578 | 14.71630 | 34713 ft | 479 kts | 135° |
| 2026-04-13 17:33 | 42.75167 | 14.78429 | 34715 ft | 479 kts | 135° |
| 2026-04-13 17:34 | 42.68569 | 14.88572 | 34717 ft | 479 kts | 135° |
| 2026-04-13 17:35 | 42.64146 | 14.95350 | 34719 ft | 479 kts | 135° |
| 2026-04-13 17:35 | 42.59722 | 15.02120 | 34723 ft | 479 kts | 135° |
| 2026-04-13 17:36 | 42.55300 | 15.08875 | 34728 ft | 479 kts | 135° |
| 2026-04-13 17:36 | 42.50872 | 15.15625 | 34730 ft | 478 kts | 135° |
| 2026-04-13 17:37 | 42.46443 | 15.22362 | 34731 ft | 478 kts | 136° |
| 2026-04-13 17:37 | 42.42023 | 15.29094 | 34737 ft | 478 kts | 136° |
| 2026-04-13 17:38 | 42.37620 | 15.35794 | 34737 ft | 478 kts | 136° |
| 2026-04-13 17:38 | 42.33188 | 15.42521 | 34742 ft | 479 kts | 136° |
| 2026-04-13 17:39 | 42.28747 | 15.49239 | 34741 ft | 479 kts | 136° |
| 2026-04-13 17:39 | 42.24292 | 15.55913 | 34744 ft | 479 kts | 136° |
| 2026-04-13 17:40 | 42.19849 | 15.62546 | 34744 ft | 479 kts | 136° |
| 2026-04-13 17:40 | 42.15381 | 15.69210 | 34743 ft | 479 kts | 136° |
| 2026-04-13 17:41 | 42.10906 | 15.75875 | 34747 ft | 479 kts | 136° |
| 2026-04-13 17:41 | 42.06424 | 15.82534 | 34750 ft | 480 kts | 136° |
| 2026-04-13 17:42 | 42.01934 | 15.89189 | 34748 ft | 480 kts | 137° |
| 2026-04-13 17:42 | 41.97442 | 15.95834 | 34759 ft | 480 kts | 137° |
| 2026-04-13 17:43 | 41.92936 | 16.02488 | 34761 ft | 481 kts | 137° |
| 2026-04-13 17:43 | 41.88491 | 16.09136 | 34759 ft | 482 kts | 136° |
| 2026-04-13 17:44 | 41.84101 | 16.15949 | 34770 ft | 482 kts | 135° |
| 2026-04-13 17:44 | 41.79715 | 16.22758 | 34771 ft | 481 kts | 135° |
| 2026-04-13 17:45 | 41.75319 | 16.29529 | 34775 ft | 481 kts | 136° |
| 2026-04-13 17:45 | 41.70915 | 16.36280 | 34765 ft | 481 kts | 136° |
| 2026-04-13 17:46 | 41.66542 | 16.42968 | 34768 ft | 480 kts | 136° |
| 2026-04-13 17:46 | 41.62139 | 16.49690 | 34781 ft | 480 kts | 136° |
| 2026-04-13 17:47 | 41.57731 | 16.56406 | 34786 ft | 480 kts | 136° |
| 2026-04-13 17:47 | 41.53327 | 16.63102 | 34779 ft | 480 kts | 136° |
| 2026-04-13 17:48 | 41.48924 | 16.69798 | 34786 ft | 480 kts | 136° |
| 2026-04-13 17:48 | 41.44549 | 16.76459 | 34790 ft | 481 kts | 136° |
| 2026-04-13 17:49 | 41.40134 | 16.83163 | 34792 ft | 481 kts | 136° |
| 2026-04-13 17:49 | 41.35704 | 16.89862 | 34790 ft | 482 kts | 136° |
| 2026-04-13 17:50 | 41.31252 | 16.96550 | 34791 ft | 483 kts | 136° |
| 2026-04-13 17:50 | 41.26788 | 17.03244 | 34797 ft | 484 kts | 136° |
| 2026-04-13 17:51 | 41.22317 | 17.09943 | 34800 ft | 484 kts | 136° |
| 2026-04-13 17:51 | 41.17838 | 17.16637 | 34815 ft | 484 kts | 137° |
| 2026-04-13 17:52 | 41.13352 | 17.23304 | 34824 ft | 484 kts | 137° |
| 2026-04-13 17:52 | 41.08887 | 17.29921 | 34829 ft | 484 kts | 137° |
| 2026-04-13 17:53 | 41.05155 | 17.35444 | 34833 ft | 484 kts | 137° |
| 2026-04-13 17:53 | 40.99904 | 17.43202 | 34838 ft | 483 kts | 137° |
| 2026-04-13 17:54 | 40.95413 | 17.49821 | 34844 ft | 483 kts | 137° |
| 2026-04-13 17:54 | 40.90919 | 17.56433 | 34850 ft | 483 kts | 137° |
| 2026-04-13 17:55 | 40.86461 | 17.62989 | 34855 ft | 483 kts | 137° |
| 2026-04-13 17:55 | 40.81985 | 17.69606 | 34855 ft | 483 kts | 137° |
| 2026-04-13 17:56 | 40.78226 | 17.75157 | 34857 ft | 483 kts | 137° |
| 2026-04-13 17:56 | 40.73761 | 17.81734 | 34854 ft | 484 kts | 138° |
| 2026-04-13 17:57 | 40.69282 | 17.88313 | 34855 ft | 484 kts | 138° |
| 2026-04-13 17:57 | 40.64770 | 17.94929 | 34845 ft | 485 kts | 138° |
| 2026-04-13 17:58 | 40.60308 | 18.01621 | 34855 ft | 489 kts | 133° |
| 2026-04-13 17:58 | 40.56308 | 18.08925 | 34863 ft | 493 kts | 131° |
| 2026-04-13 17:59 | 40.52327 | 18.16284 | 34856 ft | 494 kts | 131° |
| 2026-04-13 17:59 | 40.48325 | 18.23567 | 34865 ft | 495 kts | 131° |
| 2026-04-13 18:00 | 40.44268 | 18.30907 | 34868 ft | 496 kts | 132° |
| 2026-04-13 18:00 | 40.40194 | 18.38238 | 34866 ft | 497 kts | 132° |
| 2026-04-13 18:01 | 40.36109 | 18.45579 | 34873 ft | 498 kts | 132° |
| 2026-04-13 18:01 | 40.32025 | 18.52930 | 34877 ft | 499 kts | 132° |
| 2026-04-13 18:02 | 40.27939 | 18.60283 | 34884 ft | 499 kts | 132° |
| 2026-04-13 18:02 | 40.23871 | 18.67588 | 34895 ft | 500 kts | 132° |
| 2026-04-13 18:03 | 40.19764 | 18.74942 | 34904 ft | 500 kts | 132° |
| 2026-04-13 18:03 | 40.15645 | 18.82301 | 34903 ft | 501 kts | 132° |
| 2026-04-13 18:04 | 40.11528 | 18.89641 | 34910 ft | 501 kts | 132° |
| 2026-04-13 18:04 | 40.07388 | 18.96979 | 34916 ft | 500 kts | 134° |
| 2026-04-13 18:05 | 40.02728 | 19.03522 | 34915 ft | 489 kts | 146° |
| 2026-04-13 18:05 | 39.97532 | 19.09258 | 34919 ft | 489 kts | 146° |
| 2026-04-13 18:06 | 39.92506 | 19.15330 | 34922 ft | 498 kts | 137° |
| 2026-04-13 18:06 | 39.88064 | 19.22313 | 34925 ft | 501 kts | 136° |
| 2026-04-13 18:07 | 39.83651 | 19.29281 | 34928 ft | 502 kts | 136° |
| 2026-04-13 18:07 | 39.79179 | 19.36259 | 34931 ft | 502 kts | 136° |
| 2026-04-13 18:08 | 39.74689 | 19.43212 | 34932 ft | 502 kts | 136° |
| 2026-04-13 18:08 | 39.70190 | 19.50152 | 34934 ft | 502 kts | 136° |
| 2026-04-13 18:09 | 39.65682 | 19.57095 | 34933 ft | 502 kts | 137° |
| 2026-04-13 18:09 | 39.61202 | 19.63981 | 34936 ft | 502 kts | 137° |
| 2026-04-13 18:10 | 39.56691 | 19.70900 | 34950 ft | 502 kts | 137° |
| 2026-04-13 18:10 | 39.52169 | 19.77821 | 34945 ft | 503 kts | 137° |
| 2026-04-13 18:11 | 39.47660 | 19.84706 | 34926 ft | 504 kts | 137° |
| 2026-04-13 18:11 | 39.43123 | 19.91619 | 34937 ft | 504 kts | 137° |
| 2026-04-13 18:12 | 39.38574 | 19.98536 | 34940 ft | 505 kts | 137° |
| 2026-04-13 18:12 | 39.34015 | 20.05453 | 34943 ft | 506 kts | 137° |
| 2026-04-13 18:13 | 39.29446 | 20.12369 | 34946 ft | 506 kts | 137° |
| 2026-04-13 18:13 | 39.24866 | 20.19287 | 34947 ft | 507 kts | 137° |
| 2026-04-13 18:14 | 39.20278 | 20.26201 | 34952 ft | 508 kts | 137° |
| 2026-04-13 18:14 | 39.15678 | 20.33119 | 34952 ft | 508 kts | 137° |
| 2026-04-13 18:15 | 39.11072 | 20.40030 | 34954 ft | 509 kts | 137° |
| 2026-04-13 18:15 | 39.06454 | 20.46945 | 34960 ft | 509 kts | 137° |
| 2026-04-13 18:16 | 39.01817 | 20.53872 | 34954 ft | 510 kts | 137° |
| 2026-04-13 18:16 | 38.97213 | 20.60736 | 34961 ft | 510 kts | 137° |
| 2026-04-13 18:17 | 38.92567 | 20.67648 | 34958 ft | 510 kts | 137° |
| 2026-04-13 18:17 | 38.87926 | 20.74534 | 34958 ft | 510 kts | 137° |
| 2026-04-13 18:18 | 38.83278 | 20.81419 | 34977 ft | 510 kts | 137° |
| 2026-04-13 18:18 | 38.78645 | 20.88266 | 34981 ft | 510 kts | 137° |
| 2026-04-13 18:19 | 38.73976 | 20.95148 | 34986 ft | 511 kts | 137° |
| 2026-04-13 18:19 | 38.69302 | 21.02026 | 34994 ft | 512 kts | 137° |
| 2026-04-13 18:20 | 38.64620 | 21.08899 | 34993 ft | 512 kts | 137° |
| 2026-04-13 18:20 | 38.59935 | 21.15764 | 34999 ft | 511 kts | 137° |
| 2026-04-13 18:21 | 38.55255 | 21.22605 | 35001 ft | 511 kts | 137° |
| 2026-04-13 18:21 | 38.50574 | 21.29433 | 35010 ft | 511 kts | 137° |
| 2026-04-13 18:22 | 38.45908 | 21.36223 | 35011 ft | 512 kts | 137° |
| 2026-04-13 18:22 | 38.41158 | 21.43116 | 35007 ft | 521 kts | 137° |
| 2026-04-13 18:23 | 38.36338 | 21.50096 | 35010 ft | 528 kts | 137° |
| 2026-04-13 18:23 | 38.31466 | 21.57142 | 35009 ft | 532 kts | 137° |
| 2026-04-13 18:24 | 38.26560 | 21.64226 | 35010 ft | 534 kts | 137° |
| 2026-04-13 18:24 | 38.21638 | 21.71317 | 35020 ft | 535 kts | 137° |
| 2026-04-13 18:25 | 38.16731 | 21.78369 | 35040 ft | 535 kts | 137° |
| 2026-04-13 18:25 | 38.11796 | 21.85445 | 35064 ft | 534 kts | 137° |
| 2026-04-13 18:26 | 38.06865 | 21.92496 | 35073 ft | 533 kts | 137° |
| 2026-04-13 18:26 | 38.01945 | 21.99515 | 35084 ft | 531 kts | 137° |
| 2026-04-13 18:27 | 37.97028 | 22.06516 | 35104 ft | 531 kts | 137° |
| 2026-04-13 18:27 | 37.92111 | 22.13503 | 35107 ft | 531 kts | 137° |
| 2026-04-13 18:28 | 37.87182 | 22.20489 | 35111 ft | 532 kts | 137° |
| 2026-04-13 18:28 | 37.82275 | 22.27432 | 35118 ft | 533 kts | 137° |
| 2026-04-13 18:29 | 37.77323 | 22.34421 | 35129 ft | 533 kts | 137° |
| 2026-04-13 18:29 | 37.72371 | 22.41397 | 35126 ft | 533 kts | 137° |
| 2026-04-13 18:30 | 37.67419 | 22.48358 | 35132 ft | 532 kts | 137° |
| 2026-04-13 18:30 | 37.62455 | 22.55318 | 35136 ft | 533 kts | 137° |
| 2026-04-13 18:31 | 37.57489 | 22.62266 | 35142 ft | 533 kts | 137° |
| 2026-04-13 18:31 | 37.52549 | 22.69164 | 35168 ft | 534 kts | 137° |
| 2026-04-13 18:32 | 37.47561 | 22.76115 | 35162 ft | 534 kts | 137° |
| 2026-04-13 18:32 | 37.42570 | 22.83055 | 35143 ft | 535 kts | 137° |
| 2026-04-13 18:33 | 37.37565 | 22.89999 | 35158 ft | 536 kts | 137° |
| 2026-04-13 18:33 | 37.32558 | 22.96932 | 35148 ft | 536 kts | 137° |
| 2026-04-13 18:34 | 37.25025 | 23.07333 | 35150 ft | 536 kts | 137° |
| 2026-04-13 18:34 | 37.20007 | 23.14244 | 35147 ft | 536 kts | 137° |
| 2026-04-13 18:35 | 37.15001 | 23.21123 | 35142 ft | 536 kts | 137° |
| 2026-04-13 18:35 | 37.09978 | 23.28011 | 35142 ft | 536 kts | 137° |
| 2026-04-13 18:36 | 37.04941 | 23.34903 | 35142 ft | 536 kts | 137° |
| 2026-04-13 18:36 | 36.99908 | 23.41775 | 35144 ft | 536 kts | 137° |
| 2026-04-13 18:37 | 36.94860 | 23.48653 | 35141 ft | 536 kts | 137° |
| 2026-04-13 18:37 | 36.89840 | 23.55478 | 35141 ft | 536 kts | 137° |
| 2026-04-13 18:38 | 36.84775 | 23.62351 | 35137 ft | 537 kts | 137° |
| 2026-04-13 18:38 | 36.79708 | 23.69211 | 35135 ft | 537 kts | 137° |
| 2026-04-13 18:39 | 36.74633 | 23.76069 | 35137 ft | 538 kts | 137° |
| 2026-04-13 18:39 | 36.69555 | 23.82916 | 35140 ft | 538 kts | 137° |
| 2026-04-13 18:40 | 36.64497 | 23.89721 | 35135 ft | 538 kts | 137° |
| 2026-04-13 18:40 | 36.59400 | 23.96565 | 35132 ft | 539 kts | 137° |
| 2026-04-13 18:41 | 36.54290 | 24.03412 | 35131 ft | 539 kts | 137° |
| 2026-04-13 18:41 | 36.49207 | 24.10208 | 35141 ft | 540 kts | 137° |
| 2026-04-13 18:42 | 36.44060 | 24.17076 | 35124 ft | 540 kts | 137° |
| 2026-04-13 18:42 | 36.38965 | 24.23861 | 35123 ft | 540 kts | 137° |
| 2026-04-13 18:43 | 36.33826 | 24.30690 | 35131 ft | 540 kts | 137° |
| 2026-04-13 18:43 | 36.28696 | 24.37493 | 35135 ft | 540 kts | 137° |
| 2026-04-13 18:44 | 36.23547 | 24.44307 | 35125 ft | 540 kts | 137° |
| 2026-04-13 18:44 | 36.18434 | 24.51059 | 35129 ft | 540 kts | 137° |
| 2026-04-13 18:45 | 36.14119 | 24.56747 | 35129 ft | 540 kts | 137° |
| 2026-04-13 18:45 | 36.08998 | 24.63483 | 35129 ft | 541 kts | 137° |
| 2026-04-13 18:46 | 36.03834 | 24.70264 | 35130 ft | 541 kts | 137° |
| 2026-04-13 18:46 | 35.98671 | 24.77029 | 35127 ft | 541 kts | 137° |
| 2026-04-13 18:47 | 35.93497 | 24.83795 | 35128 ft | 541 kts | 137° |
| 2026-04-13 18:47 | 35.88344 | 24.90519 | 35128 ft | 542 kts | 137° |
| 2026-04-13 18:48 | 35.83163 | 24.97265 | 35127 ft | 542 kts | 137° |
| 2026-04-13 18:48 | 35.77975 | 25.04008 | 35123 ft | 542 kts | 137° |
| 2026-04-13 18:49 | 35.72779 | 25.10747 | 35134 ft | 542 kts | 137° |
| 2026-04-13 18:49 | 35.67574 | 25.17484 | 35129 ft | 542 kts | 137° |
| 2026-04-13 18:50 | 35.62397 | 25.24171 | 35129 ft | 543 kts | 137° |
| 2026-04-13 18:50 | 35.57185 | 25.30892 | 35132 ft | 543 kts | 137° |
| 2026-04-13 18:51 | 35.51961 | 25.37612 | 35128 ft | 543 kts | 137° |
| 2026-04-13 18:51 | 35.46738 | 25.44318 | 35131 ft | 543 kts | 137° |
| 2026-04-13 18:52 | 35.41507 | 25.51021 | 35133 ft | 543 kts | 137° |
| 2026-04-13 18:52 | 35.36279 | 25.57708 | 35135 ft | 543 kts | 137° |
| 2026-04-13 18:53 | 35.31074 | 25.64350 | 35142 ft | 543 kts | 137° |
| 2026-04-13 18:53 | 35.25836 | 25.71022 | 35132 ft | 543 kts | 137° |
| 2026-04-13 18:54 | 35.20601 | 25.77676 | 35145 ft | 543 kts | 137° |
| 2026-04-13 18:54 | 35.15356 | 25.84331 | 35146 ft | 544 kts | 137° |
| 2026-04-13 18:55 | 35.10096 | 25.90992 | 35145 ft | 544 kts | 137° |
| 2026-04-13 18:55 | 35.04840 | 25.97632 | 35152 ft | 543 kts | 137° |
| 2026-04-13 18:56 | 34.99584 | 26.04263 | 35152 ft | 544 kts | 137° |
| 2026-04-13 18:56 | 34.94343 | 26.10860 | 35153 ft | 544 kts | 137° |
| 2026-04-13 18:57 | 34.89050 | 26.17509 | 35150 ft | 545 kts | 137° |
| 2026-04-13 18:57 | 34.83773 | 26.24125 | 35154 ft | 545 kts | 137° |
| 2026-04-13 18:58 | 34.78482 | 26.30745 | 35149 ft | 545 kts | 137° |
| 2026-04-13 18:58 | 34.73189 | 26.37356 | 35153 ft | 545 kts | 137° |
| 2026-04-13 18:59 | 34.67927 | 26.43915 | 35154 ft | 545 kts | 137° |
| 2026-04-13 18:59 | 34.62624 | 26.50511 | 35152 ft | 545 kts | 137° |
| 2026-04-13 19:00 | 34.57316 | 26.57101 | 35151 ft | 545 kts | 137° |
| 2026-04-13 19:00 | 34.52044 | 26.63635 | 35155 ft | 545 kts | 137° |
| 2026-04-13 19:01 | 34.46728 | 26.70210 | 35153 ft | 545 kts | 137° |
| 2026-04-13 19:01 | 34.41411 | 26.76773 | 35154 ft | 545 kts | 137° |
| 2026-04-13 19:02 | 34.36082 | 26.83339 | 35153 ft | 545 kts | 137° |
| 2026-04-13 19:02 | 34.30798 | 26.89837 | 35150 ft | 545 kts | 137° |
| 2026-04-13 19:03 | 34.25467 | 26.96380 | 35148 ft | 545 kts | 137° |
| 2026-04-13 19:03 | 34.20130 | 27.02918 | 35153 ft | 545 kts | 137° |
| 2026-04-13 19:04 | 34.14822 | 27.09407 | 35163 ft | 545 kts | 137° |
| 2026-04-13 19:04 | 34.09475 | 27.15933 | 35152 ft | 545 kts | 137° |
| 2026-04-13 19:05 | 34.04131 | 27.22444 | 35153 ft | 545 kts | 137° |
| 2026-04-13 19:05 | 33.98819 | 27.28904 | 35155 ft | 545 kts | 137° |
| 2026-04-13 19:06 | 33.93460 | 27.35375 | 35159 ft | 544 kts | 139° |
| 2026-04-13 19:06 | 33.87925 | 27.41587 | 35158 ft | 544 kts | 140° |
| 2026-04-13 19:07 | 33.82315 | 27.47699 | 35158 ft | 544 kts | 140° |
| 2026-04-13 19:07 | 33.76760 | 27.53792 | 35161 ft | 544 kts | 140° |
| 2026-04-13 19:08 | 33.71187 | 27.59956 | 35159 ft | 544 kts | 140° |
| 2026-04-13 19:08 | 33.65616 | 27.66127 | 35161 ft | 544 kts | 140° |
| 2026-04-13 19:09 | 33.60047 | 27.72279 | 35163 ft | 544 kts | 140° |
| 2026-04-13 19:09 | 33.54500 | 27.78393 | 35161 ft | 544 kts | 140° |
| 2026-04-13 19:10 | 33.48913 | 27.84536 | 35159 ft | 544 kts | 140° |
| 2026-04-13 19:10 | 33.43320 | 27.90675 | 35159 ft | 544 kts | 140° |
| 2026-04-13 19:11 | 33.37725 | 27.96805 | 35175 ft | 544 kts | 140° |
| 2026-04-13 19:11 | 33.32131 | 28.02923 | 35170 ft | 544 kts | 140° |
| 2026-04-13 19:12 | 33.26568 | 28.08997 | 35158 ft | 544 kts | 140° |
| 2026-04-13 19:12 | 33.20978 | 28.15089 | 35164 ft | 544 kts | 140° |
| 2026-04-13 19:13 | 33.15384 | 28.21174 | 35150 ft | 544 kts | 140° |
| 2026-04-13 19:13 | 33.09792 | 28.27246 | 35161 ft | 543 kts | 140° |
| 2026-04-13 19:14 | 33.04198 | 28.33308 | 35165 ft | 543 kts | 140° |
| 2026-04-13 19:14 | 32.98606 | 28.39359 | 35162 ft | 543 kts | 140° |
| 2026-04-13 19:15 | 32.93002 | 28.45411 | 35163 ft | 543 kts | 140° |
| 2026-04-13 19:15 | 32.87438 | 28.51410 | 35163 ft | 543 kts | 140° |
| 2026-04-13 19:16 | 32.81836 | 28.57438 | 35157 ft | 543 kts | 140° |
| 2026-04-13 19:16 | 32.76223 | 28.63468 | 35162 ft | 543 kts | 140° |
| 2026-04-13 19:17 | 32.70607 | 28.69491 | 35163 ft | 543 kts | 140° |
| 2026-04-13 19:17 | 32.64991 | 28.75502 | 35158 ft | 543 kts | 140° |
| 2026-04-13 19:18 | 32.59379 | 28.81499 | 35165 ft | 543 kts | 141° |
| 2026-04-13 19:18 | 32.53754 | 28.87499 | 35159 ft | 543 kts | 141° |
| 2026-04-13 19:19 | 32.48171 | 28.93444 | 35165 ft | 543 kts | 141° |
| 2026-04-13 19:19 | 32.42541 | 28.99428 | 35161 ft | 543 kts | 141° |
| 2026-04-13 19:20 | 32.36912 | 29.05401 | 35158 ft | 543 kts | 141° |
| 2026-04-13 19:20 | 32.31324 | 29.11321 | 35156 ft | 542 kts | 141° |
| 2026-04-13 19:21 | 32.25700 | 29.17268 | 35158 ft | 542 kts | 141° |
| 2026-04-13 19:21 | 32.20071 | 29.23209 | 35156 ft | 542 kts | 141° |
| 2026-04-13 19:22 | 32.14439 | 29.29145 | 35162 ft | 542 kts | 141° |
| 2026-04-13 19:22 | 32.08803 | 29.35073 | 35161 ft | 542 kts | 141° |
| 2026-04-13 19:23 | 32.03165 | 29.40993 | 35158 ft | 542 kts | 141° |
| 2026-04-13 19:23 | 31.97559 | 29.46870 | 35158 ft | 542 kts | 141° |
| 2026-04-13 19:24 | 31.91901 | 29.52792 | 35155 ft | 542 kts | 141° |
| 2026-04-13 19:24 | 31.86257 | 29.58689 | 35158 ft | 542 kts | 141° |
| 2026-04-13 19:25 | 31.80642 | 29.64545 | 35149 ft | 543 kts | 141° |
| 2026-04-13 19:25 | 31.74987 | 29.70433 | 35155 ft | 543 kts | 141° |
| 2026-04-13 19:26 | 31.69323 | 29.76320 | 35154 ft | 543 kts | 141° |
| 2026-04-13 19:26 | 31.63661 | 29.82195 | 35151 ft | 543 kts | 141° |
| 2026-04-13 19:27 | 31.58018 | 29.88041 | 35150 ft | 543 kts | 141° |
| 2026-04-13 19:27 | 31.52352 | 29.93901 | 35145 ft | 543 kts | 141° |
| 2026-04-13 19:28 | 31.46677 | 29.99760 | 35142 ft | 543 kts | 141° |
| 2026-04-13 19:28 | 31.41007 | 30.05604 | 35141 ft | 543 kts | 141° |
| 2026-04-13 19:29 | 31.35327 | 30.11449 | 35139 ft | 543 kts | 141° |
| 2026-04-13 19:29 | 31.29657 | 30.17274 | 35134 ft | 543 kts | 141° |
| 2026-04-13 19:30 | 31.24930 | 30.22122 | 35134 ft | 543 kts | 141° |
| 2026-04-13 19:30 | 31.18330 | 30.28881 | 35147 ft | 542 kts | 141° |
| 2026-04-13 19:31 | 31.12649 | 30.34687 | 35144 ft | 542 kts | 141° |
| 2026-04-13 19:31 | 31.07922 | 30.39512 | 35139 ft | 542 kts | 141° |
| 2026-04-13 19:32 | 31.01282 | 30.46278 | 35141 ft | 542 kts | 141° |
| 2026-04-13 19:32 | 30.96557 | 30.51084 | 35137 ft | 542 kts | 141° |
| 2026-04-13 19:33 | 30.90868 | 30.56863 | 35136 ft | 542 kts | 141° |
| 2026-04-13 19:34 | 30.82332 | 30.65515 | 35132 ft | 542 kts | 141° |
| 2026-04-13 19:34 | 30.76679 | 30.71233 | 35134 ft | 542 kts | 141° |
| 2026-04-13 19:35 | 30.70981 | 30.76988 | 35126 ft | 542 kts | 141° |
| 2026-04-13 19:35 | 30.65295 | 30.82721 | 35123 ft | 542 kts | 141° |
| 2026-04-13 19:36 | 30.59592 | 30.88462 | 35127 ft | 541 kts | 141° |
| 2026-04-13 19:36 | 30.53899 | 30.94185 | 35125 ft | 541 kts | 141° |
| 2026-04-13 19:37 | 30.48196 | 30.99907 | 35126 ft | 541 kts | 141° |
| 2026-04-13 19:37 | 30.42499 | 31.05615 | 35130 ft | 541 kts | 141° |
| 2026-04-13 19:38 | 30.36803 | 31.11312 | 35131 ft | 541 kts | 141° |
| 2026-04-13 19:38 | 30.31144 | 31.16964 | 35134 ft | 540 kts | 141° |
| 2026-04-13 19:39 | 30.25444 | 31.22648 | 35144 ft | 540 kts | 141° |
| 2026-04-13 19:39 | 30.19737 | 31.28329 | 35148 ft | 540 kts | 141° |
| 2026-04-13 19:40 | 30.14072 | 31.33963 | 35161 ft | 540 kts | 141° |
| 2026-04-13 19:40 | 30.08349 | 31.39581 | 35153 ft | 539 kts | 144° |
| 2026-04-13 19:41 | 30.02336 | 31.44768 | 35162 ft | 538 kts | 146° |
| 2026-04-13 19:41 | 29.96279 | 31.49875 | 35149 ft | 539 kts | 146° |
| 2026-04-13 19:42 | 29.87257 | 31.57525 | 35141 ft | 538 kts | 146° |
| 2026-04-13 19:42 | 29.81230 | 31.62656 | 35134 ft | 538 kts | 146° |
| 2026-04-13 19:43 | 29.75197 | 31.67787 | 35134 ft | 538 kts | 146° |
| 2026-04-13 19:43 | 29.69145 | 31.72924 | 35352 ft | 540 kts | 146° |
| 2026-04-13 19:44 | 29.66122 | 31.75486 | 35593 ft | 539 kts | 146° |
| 2026-04-13 19:44 | 29.63108 | 31.78039 | 35835 ft | 538 kts | 146° |
| 2026-04-13 19:44 | 29.60095 | 31.80589 | 36050 ft | 537 kts | 146° |
| 2026-04-13 19:44 | 29.57078 | 31.83139 | 36231 ft | 537 kts | 146° |
| 2026-04-13 19:45 | 29.54105 | 31.85651 | 36416 ft | 537 kts | 146° |
| 2026-04-13 19:45 | 29.51093 | 31.88194 | 36585 ft | 537 kts | 146° |
| 2026-04-13 19:45 | 29.48085 | 31.90732 | 36771 ft | 537 kts | 146° |
| 2026-04-13 19:45 | 29.45069 | 31.93274 | 36968 ft | 537 kts | 146° |
| 2026-04-13 19:46 | 29.42058 | 31.95811 | 37071 ft | 537 kts | 146° |
| 2026-04-13 19:46 | 29.39037 | 31.98353 | 37105 ft | 538 kts | 146° |
| 2026-04-13 19:46 | 29.32991 | 32.03437 | 37121 ft | 539 kts | 146° |
| 2026-04-13 19:47 | 29.26946 | 32.08513 | 37126 ft | 538 kts | 146° |
| 2026-04-13 19:47 | 29.20930 | 32.13556 | 37125 ft | 538 kts | 146° |
| 2026-04-13 19:48 | 29.14898 | 32.18605 | 37113 ft | 537 kts | 146° |
| 2026-04-13 19:48 | 29.08860 | 32.23652 | 37133 ft | 537 kts | 146° |
| 2026-04-13 19:49 | 29.02824 | 32.28689 | 37128 ft | 536 kts | 146° |
| 2026-04-13 19:49 | 28.96795 | 32.33713 | 37102 ft | 536 kts | 146° |
| 2026-04-13 19:50 | 28.90758 | 32.38736 | 37119 ft | 537 kts | 146° |
| 2026-04-13 19:50 | 28.84719 | 32.43754 | 37116 ft | 537 kts | 146° |
| 2026-04-13 19:51 | 28.78693 | 32.48753 | 37113 ft | 537 kts | 146° |
| 2026-04-13 19:51 | 28.72647 | 32.53763 | 37115 ft | 537 kts | 146° |
| 2026-04-13 19:52 | 28.66604 | 32.58762 | 37097 ft | 537 kts | 146° |
| 2026-04-13 19:52 | 28.60554 | 32.63758 | 37099 ft | 537 kts | 146° |
| 2026-04-13 19:53 | 28.54542 | 32.68717 | 37088 ft | 537 kts | 146° |
| 2026-04-13 19:53 | 28.48479 | 32.73711 | 37076 ft | 537 kts | 146° |
| 2026-04-13 19:54 | 28.42410 | 32.78703 | 37067 ft | 538 kts | 146° |
| 2026-04-13 19:54 | 28.36385 | 32.83651 | 37066 ft | 538 kts | 146° |
| 2026-04-13 19:55 | 28.30305 | 32.88638 | 37065 ft | 538 kts | 147° |
| 2026-04-13 19:55 | 28.24231 | 32.93612 | 37062 ft | 539 kts | 147° |
| 2026-04-13 19:56 | 28.18143 | 32.98591 | 37060 ft | 539 kts | 147° |
| 2026-04-13 19:56 | 28.12051 | 33.03567 | 37058 ft | 539 kts | 147° |
| 2026-04-13 19:57 | 28.06004 | 33.08499 | 37060 ft | 539 kts | 147° |
| 2026-04-13 19:57 | 27.99903 | 33.13467 | 37053 ft | 539 kts | 147° |
| 2026-04-13 19:58 | 27.93793 | 33.18433 | 37050 ft | 539 kts | 147° |
| 2026-04-13 19:58 | 27.87726 | 33.23359 | 37061 ft | 539 kts | 147° |
| 2026-04-13 19:59 | 27.81626 | 33.28305 | 37054 ft | 540 kts | 147° |
| 2026-04-13 19:59 | 27.75514 | 33.33255 | 37043 ft | 540 kts | 147° |
| 2026-04-13 20:00 | 27.69406 | 33.38195 | 37053 ft | 540 kts | 147° |
| 2026-04-13 20:00 | 27.63297 | 33.43129 | 37045 ft | 540 kts | 147° |
| 2026-04-13 20:01 | 27.57184 | 33.48061 | 37052 ft | 540 kts | 147° |
| 2026-04-13 20:01 | 27.51067 | 33.52988 | 37050 ft | 540 kts | 147° |
| 2026-04-13 20:02 | 27.44984 | 33.57868 | 37044 ft | 540 kts | 147° |
| 2026-04-13 20:02 | 27.38849 | 33.62780 | 37045 ft | 540 kts | 147° |
| 2026-04-13 20:03 | 27.32719 | 33.67686 | 37044 ft | 540 kts | 147° |
| 2026-04-13 20:03 | 27.26636 | 33.72549 | 37051 ft | 539 kts | 147° |
| 2026-04-13 20:04 | 27.20675 | 33.77661 | 37044 ft | 541 kts | 137° |
| 2026-04-13 20:04 | 27.16095 | 33.84379 | 37059 ft | 543 kts | 119° |
| 2026-04-13 20:05 | 27.13146 | 33.92173 | 37058 ft | 543 kts | 110° |
| 2026-04-13 20:05 | 27.10464 | 34.00117 | 37044 ft | 544 kts | 110° |
| 2026-04-13 20:06 | 27.07680 | 34.08025 | 37039 ft | 545 kts | 111° |
| 2026-04-13 20:06 | 27.04856 | 34.15875 | 37028 ft | 545 kts | 111° |
| 2026-04-13 20:07 | 27.02024 | 34.23764 | 37027 ft | 545 kts | 111° |
| 2026-04-13 20:07 | 26.99190 | 34.31659 | 37026 ft | 545 kts | 111° |
| 2026-04-13 20:08 | 26.96361 | 34.39537 | 37021 ft | 544 kts | 111° |
| 2026-04-13 20:08 | 26.93527 | 34.47409 | 37017 ft | 544 kts | 112° |
| 2026-04-13 20:09 | 26.90693 | 34.55266 | 37019 ft | 543 kts | 112° |
| 2026-04-13 20:09 | 26.87874 | 34.63066 | 37021 ft | 543 kts | 112° |
| 2026-04-13 20:10 | 26.85038 | 34.70897 | 37018 ft | 542 kts | 112° |
| 2026-04-13 20:10 | 26.82200 | 34.78717 | 37017 ft | 542 kts | 112° |
| 2026-04-13 20:11 | 26.79359 | 34.86530 | 37012 ft | 541 kts | 112° |
| 2026-04-13 20:11 | 26.76514 | 34.94337 | 37013 ft | 541 kts | 112° |
| 2026-04-13 20:12 | 26.73685 | 35.02086 | 37012 ft | 541 kts | 112° |
| 2026-04-13 20:12 | 26.70833 | 35.09884 | 37010 ft | 541 kts | 112° |
| 2026-04-13 20:13 | 26.67977 | 35.17675 | 37009 ft | 541 kts | 112° |
| 2026-04-13 20:13 | 26.65115 | 35.25468 | 37007 ft | 541 kts | 112° |
| 2026-04-13 20:14 | 26.62270 | 35.33201 | 37005 ft | 541 kts | 112° |
| 2026-04-13 20:14 | 26.59402 | 35.40980 | 37003 ft | 541 kts | 112° |
| 2026-04-13 20:15 | 26.56527 | 35.48764 | 37002 ft | 541 kts | 113° |
| 2026-04-13 20:15 | 26.53594 | 35.56511 | 36999 ft | 541 kts | 114° |
| 2026-04-13 20:16 | 26.50616 | 35.64242 | 36996 ft | 541 kts | 114° |
| 2026-04-13 20:16 | 26.47645 | 35.71963 | 36990 ft | 541 kts | 114° |
| 2026-04-13 20:17 | 26.44697 | 35.79640 | 36987 ft | 541 kts | 114° |
| 2026-04-13 20:17 | 26.41728 | 35.87362 | 36989 ft | 541 kts | 114° |
| 2026-04-13 20:18 | 26.38756 | 35.95078 | 36988 ft | 541 kts | 114° |
| 2026-04-13 20:18 | 26.35781 | 36.02783 | 36986 ft | 541 kts | 114° |
| 2026-04-13 20:19 | 26.32802 | 36.10486 | 36982 ft | 541 kts | 114° |
| 2026-04-13 20:19 | 26.30325 | 36.16878 | 36981 ft | 541 kts | 114° |
| 2026-04-13 20:20 | 26.27335 | 36.24581 | 36987 ft | 540 kts | 114° |
| 2026-04-13 20:20 | 26.24350 | 36.32257 | 36994 ft | 540 kts | 114° |
| 2026-04-13 20:21 | 26.21360 | 36.39935 | 36996 ft | 540 kts | 114° |
| 2026-04-13 20:21 | 26.18975 | 36.47796 | 36992 ft | 540 kts | 100° |
| 2026-04-13 20:22 | 26.18464 | 36.56103 | 36991 ft | 539 kts | 84° |
| 2026-04-13 20:22 | 26.19324 | 36.64372 | 36999 ft | 538 kts | 81° |
| 2026-04-13 20:23 | 26.20269 | 36.72675 | 36996 ft | 540 kts | 82° |
| 2026-04-13 20:23 | 26.21139 | 36.80984 | 36996 ft | 541 kts | 82° |
| 2026-04-13 20:24 | 26.21963 | 36.89328 | 37001 ft | 541 kts | 83° |
| 2026-04-13 20:24 | 26.22776 | 36.97674 | 37006 ft | 542 kts | 83° |
| 2026-04-13 20:25 | 26.23590 | 37.06033 | 37010 ft | 542 kts | 83° |
| 2026-04-13 20:25 | 26.24397 | 37.14328 | 37028 ft | 542 kts | 83° |
| 2026-04-13 20:26 | 26.25206 | 37.22684 | 37040 ft | 542 kts | 83° |
| 2026-04-13 20:26 | 26.26011 | 37.31062 | 37043 ft | 542 kts | 83° |
| 2026-04-13 20:27 | 26.26808 | 37.39411 | 37058 ft | 542 kts | 83° |
| 2026-04-13 20:27 | 26.27596 | 37.47716 | 37053 ft | 542 kts | 83° |
| 2026-04-13 20:28 | 26.28384 | 37.56068 | 37062 ft | 542 kts | 83° |
| 2026-04-13 20:28 | 26.29166 | 37.64424 | 37069 ft | 541 kts | 83° |
| 2026-04-13 20:29 | 26.29944 | 37.72769 | 37067 ft | 541 kts | 83° |
| 2026-04-13 20:29 | 26.30718 | 37.81118 | 37066 ft | 541 kts | 83° |
| 2026-04-13 20:30 | 26.31495 | 37.89457 | 37061 ft | 541 kts | 83° |
| 2026-04-13 20:30 | 26.32265 | 37.97753 | 37070 ft | 541 kts | 84° |
| 2026-04-13 20:31 | 26.33034 | 38.06099 | 37070 ft | 542 kts | 84° |
| 2026-04-13 20:31 | 26.33798 | 38.14450 | 37066 ft | 542 kts | 84° |
| 2026-04-13 20:32 | 26.34557 | 38.22821 | 37076 ft | 542 kts | 84° |
| 2026-04-13 20:32 | 26.35306 | 38.31189 | 37076 ft | 542 kts | 84° |
| 2026-04-13 20:33 | 26.36038 | 38.39577 | 37073 ft | 543 kts | 84° |
| 2026-04-13 20:33 | 26.36766 | 38.47956 | 37094 ft | 543 kts | 84° |
| 2026-04-13 20:34 | 26.37491 | 38.56346 | 37101 ft | 543 kts | 84° |
| 2026-04-13 20:34 | 26.38209 | 38.64685 | 37102 ft | 543 kts | 84° |
| 2026-04-13 20:35 | 26.38926 | 38.73094 | 37108 ft | 543 kts | 84° |
| 2026-04-13 20:35 | 26.39638 | 38.81489 | 37112 ft | 543 kts | 85° |
| 2026-04-13 20:36 | 26.40339 | 38.89826 | 37118 ft | 543 kts | 85° |
| 2026-04-13 20:36 | 26.41041 | 38.98224 | 37124 ft | 543 kts | 85° |
| 2026-04-13 20:37 | 26.41737 | 39.06615 | 37127 ft | 543 kts | 85° |
| 2026-04-13 20:37 | 26.42430 | 39.15016 | 37119 ft | 543 kts | 85° |
| 2026-04-13 20:38 | 26.43117 | 39.23419 | 37124 ft | 543 kts | 85° |
| 2026-04-13 20:38 | 26.43739 | 39.31825 | 37126 ft | 543 kts | 87° |
| 2026-04-13 20:39 | 26.44141 | 39.40194 | 37125 ft | 543 kts | 88° |
| 2026-04-13 20:39 | 26.44508 | 39.48620 | 37130 ft | 543 kts | 88° |
| 2026-04-13 20:40 | 26.44904 | 39.57035 | 37131 ft | 543 kts | 88° |
| 2026-04-13 20:40 | 26.45318 | 39.65465 | 37139 ft | 543 kts | 88° |
| 2026-04-13 20:41 | 26.45729 | 39.73896 | 37141 ft | 544 kts | 88° |
| 2026-04-13 20:41 | 26.46129 | 39.82283 | 37141 ft | 544 kts | 88° |
| 2026-04-13 20:42 | 26.46526 | 39.90727 | 37150 ft | 544 kts | 88° |
| 2026-04-13 20:42 | 26.46918 | 39.99174 | 37152 ft | 545 kts | 88° |
| 2026-04-13 20:43 | 26.47306 | 40.07627 | 37152 ft | 545 kts | 88° |
| 2026-04-13 20:43 | 26.47689 | 40.16084 | 37143 ft | 546 kts | 88° |
| 2026-04-13 20:44 | 26.48065 | 40.24494 | 37147 ft | 546 kts | 88° |
| 2026-04-13 20:44 | 26.48439 | 40.32984 | 37139 ft | 546 kts | 88° |
| 2026-04-13 20:45 | 26.48808 | 40.41460 | 37138 ft | 546 kts | 88° |
| 2026-04-13 20:46 | 26.49351 | 40.54158 | 37137 ft | 546 kts | 88° |
| 2026-04-13 20:46 | 26.49705 | 40.62570 | 37132 ft | 546 kts | 88° |
| 2026-04-13 20:47 | 26.50057 | 40.71030 | 37131 ft | 545 kts | 88° |
| 2026-04-13 20:47 | 26.50404 | 40.79513 | 37135 ft | 545 kts | 89° |
| 2026-04-13 20:48 | 26.50746 | 40.87974 | 37123 ft | 545 kts | 89° |
| 2026-04-13 20:48 | 26.51083 | 40.96425 | 37138 ft | 545 kts | 89° |
| 2026-04-13 20:49 | 26.51365 | 41.04878 | 37137 ft | 544 kts | 92° |
| 2026-04-13 20:49 | 26.50903 | 41.13287 | 37140 ft | 542 kts | 97° |
| 2026-04-13 20:50 | 26.50248 | 41.21622 | 37130 ft | 543 kts | 97° |
| 2026-04-13 20:50 | 26.49607 | 41.30037 | 37131 ft | 543 kts | 97° |
| 2026-04-13 20:51 | 26.49000 | 41.38458 | 37131 ft | 544 kts | 96° |
| 2026-04-13 20:51 | 26.48401 | 41.46889 | 37134 ft | 544 kts | 97° |
| 2026-04-13 20:52 | 26.47799 | 41.55256 | 37131 ft | 545 kts | 97° |
| 2026-04-13 20:52 | 26.47185 | 41.63684 | 37129 ft | 545 kts | 97° |
| 2026-04-13 20:53 | 26.46564 | 41.72119 | 37127 ft | 544 kts | 97° |
| 2026-04-13 20:53 | 26.45939 | 41.80536 | 37126 ft | 544 kts | 97° |
| 2026-04-13 20:54 | 26.45311 | 41.88942 | 37128 ft | 543 kts | 97° |
| 2026-04-13 20:54 | 26.44678 | 41.97335 | 37124 ft | 542 kts | 97° |
| 2026-04-13 20:55 | 26.44041 | 42.05723 | 37126 ft | 541 kts | 98° |
| 2026-04-13 20:55 | 26.43401 | 42.14090 | 37126 ft | 541 kts | 98° |
| 2026-04-13 20:56 | 26.42756 | 42.22449 | 37132 ft | 540 kts | 98° |
| 2026-04-13 20:56 | 26.42111 | 42.30752 | 37133 ft | 540 kts | 98° |
| 2026-04-13 20:57 | 26.41456 | 42.39111 | 37130 ft | 540 kts | 98° |
| 2026-04-13 20:57 | 26.40798 | 42.47450 | 37136 ft | 539 kts | 98° |
| 2026-04-13 20:58 | 26.40135 | 42.55790 | 37142 ft | 539 kts | 99° |
| 2026-04-13 20:58 | 26.39467 | 42.64137 | 37126 ft | 540 kts | 99° |
| 2026-04-13 20:59 | 26.38798 | 42.72422 | 37132 ft | 540 kts | 99° |
| 2026-04-13 20:59 | 26.38121 | 42.80770 | 37133 ft | 540 kts | 99° |
| 2026-04-13 21:00 | 26.37436 | 42.89127 | 37124 ft | 540 kts | 99° |
| 2026-04-13 21:00 | 26.36754 | 42.97420 | 37126 ft | 540 kts | 99° |
| 2026-04-13 21:01 | 26.36061 | 43.05770 | 37117 ft | 540 kts | 99° |
| 2026-04-13 21:01 | 26.35356 | 43.14117 | 37118 ft | 541 kts | 99° |
| 2026-04-13 21:02 | 26.34642 | 43.22489 | 37115 ft | 541 kts | 99° |
| 2026-04-13 21:02 | 26.33926 | 43.30851 | 37111 ft | 542 kts | 100° |
| 2026-04-13 21:03 | 26.33205 | 43.39213 | 37103 ft | 542 kts | 100° |
| 2026-04-13 21:03 | 26.32483 | 43.47543 | 37115 ft | 543 kts | 100° |
| 2026-04-13 21:04 | 26.31751 | 43.55927 | 37111 ft | 543 kts | 100° |
| 2026-04-13 21:04 | 26.31139 | 43.62895 | 37107 ft | 543 kts | 100° |
| 2026-04-13 21:05 | 26.30210 | 43.72691 | 37108 ft | 541 kts | 104° |
| 2026-04-13 21:05 | 26.28369 | 43.80674 | 37110 ft | 531 kts | 115° |
| 2026-04-13 21:06 | 26.25982 | 43.86932 | 37111 ft | 524 kts | 123° |
| 2026-04-13 21:06 | 26.22709 | 43.94191 | 37088 ft | 524 kts | 123° |
| 2026-04-13 21:07 | 26.19430 | 44.01448 | 37105 ft | 524 kts | 123° |
| 2026-04-13 21:07 | 26.16186 | 44.08711 | 37102 ft | 524 kts | 123° |
| 2026-04-13 21:08 | 26.12954 | 44.15988 | 37102 ft | 524 kts | 123° |
| 2026-04-13 21:08 | 26.09716 | 44.23272 | 37106 ft | 524 kts | 123° |
| 2026-04-13 21:09 | 26.06476 | 44.30543 | 37109 ft | 524 kts | 123° |
| 2026-04-13 21:09 | 26.03251 | 44.37762 | 37112 ft | 524 kts | 123° |
| 2026-04-13 21:10 | 26.00002 | 44.45023 | 37105 ft | 524 kts | 123° |
| 2026-04-13 21:10 | 25.96749 | 44.52280 | 37111 ft | 523 kts | 123° |
| 2026-04-13 21:11 | 25.93520 | 44.59474 | 37113 ft | 523 kts | 123° |
| 2026-04-13 21:11 | 25.90256 | 44.66732 | 37116 ft | 523 kts | 123° |
| 2026-04-13 21:12 | 25.87017 | 44.73922 | 37115 ft | 523 kts | 123° |
| 2026-04-13 21:12 | 25.83757 | 44.81149 | 37116 ft | 524 kts | 123° |
| 2026-04-13 21:13 | 25.80490 | 44.88379 | 37117 ft | 524 kts | 123° |
| 2026-04-13 21:13 | 25.77217 | 44.95611 | 37122 ft | 524 kts | 124° |
| 2026-04-13 21:14 | 25.73941 | 45.02835 | 37125 ft | 524 kts | 124° |
| 2026-04-13 21:14 | 25.70662 | 45.10056 | 37128 ft | 524 kts | 124° |
| 2026-04-13 21:15 | 25.67398 | 45.17232 | 37130 ft | 523 kts | 124° |
| 2026-04-13 21:15 | 25.64120 | 45.24427 | 37136 ft | 523 kts | 124° |
| 2026-04-13 21:16 | 25.60836 | 45.31625 | 37129 ft | 523 kts | 125° |
| 2026-04-13 21:16 | 25.57568 | 45.38774 | 37126 ft | 522 kts | 125° |
| 2026-04-13 21:17 | 25.54283 | 45.45949 | 37134 ft | 521 kts | 125° |
| 2026-04-13 21:17 | 25.51001 | 45.53105 | 37137 ft | 521 kts | 126° |
| 2026-04-13 21:18 | 25.47713 | 45.60264 | 37128 ft | 521 kts | 126° |
| 2026-04-13 21:18 | 25.44422 | 45.67419 | 37140 ft | 521 kts | 126° |
| 2026-04-13 21:19 | 25.41133 | 45.74555 | 37133 ft | 521 kts | 126° |
| 2026-04-13 21:19 | 25.37860 | 45.81649 | 37127 ft | 521 kts | 126° |
| 2026-04-13 21:20 | 25.34555 | 45.88798 | 37147 ft | 520 kts | 126° |
| 2026-04-13 21:20 | 25.31272 | 45.95888 | 37143 ft | 520 kts | 126° |
| 2026-04-13 21:21 | 25.27972 | 46.03006 | 37137 ft | 520 kts | 126° |
| 2026-04-13 21:21 | 25.24670 | 46.10117 | 37137 ft | 519 kts | 126° |
| 2026-04-13 21:22 | 25.21372 | 46.17208 | 37145 ft | 519 kts | 126° |
| 2026-04-13 21:22 | 25.18070 | 46.24295 | 37148 ft | 518 kts | 126° |
| 2026-04-13 21:23 | 25.14768 | 46.31373 | 37151 ft | 518 kts | 126° |
| 2026-04-13 21:23 | 25.11464 | 46.38441 | 37153 ft | 518 kts | 126° |
| 2026-04-13 21:24 | 25.08177 | 46.45464 | 37150 ft | 518 kts | 126° |
| 2026-04-13 21:24 | 25.04865 | 46.52529 | 37158 ft | 518 kts | 126° |
| 2026-04-13 21:25 | 25.01549 | 46.59594 | 37158 ft | 519 kts | 126° |
| 2026-04-13 21:25 | 24.98223 | 46.66670 | 37153 ft | 519 kts | 127° |
| 2026-04-13 21:26 | 24.95104 | 46.73892 | 37161 ft | 528 kts | 120° |
| 2026-04-13 21:26 | 24.92495 | 46.81460 | 37159 ft | 529 kts | 119° |
| 2026-04-13 21:27 | 24.89925 | 46.89074 | 37153 ft | 530 kts | 119° |
| 2026-04-13 21:27 | 24.87335 | 46.96633 | 37147 ft | 530 kts | 120° |
| 2026-04-13 21:28 | 24.84699 | 47.04225 | 37149 ft | 531 kts | 120° |
| 2026-04-13 21:28 | 24.82048 | 47.11824 | 37133 ft | 531 kts | 120° |
| 2026-04-13 21:29 | 24.79393 | 47.19423 | 37130 ft | 532 kts | 120° |
| 2026-04-13 21:29 | 24.76735 | 47.27026 | 37137 ft | 532 kts | 120° |
| 2026-04-13 21:30 | 24.74069 | 47.34638 | 37130 ft | 533 kts | 120° |
| 2026-04-13 21:30 | 24.71398 | 47.42252 | 37127 ft | 534 kts | 120° |
| 2026-04-13 21:31 | 24.68738 | 47.49818 | 37130 ft | 534 kts | 120° |
| 2026-04-13 21:31 | 24.66051 | 47.57446 | 37117 ft | 535 kts | 120° |
| 2026-04-13 21:32 | 24.63356 | 47.65087 | 37114 ft | 535 kts | 120° |
| 2026-04-13 21:32 | 24.60655 | 47.72726 | 37117 ft | 536 kts | 120° |
| 2026-04-13 21:33 | 24.57969 | 47.80310 | 37109 ft | 536 kts | 120° |
| 2026-04-13 21:33 | 24.55256 | 47.87959 | 37109 ft | 537 kts | 120° |
| 2026-04-13 21:34 | 24.51173 | 47.99436 | 37106 ft | 538 kts | 120° |
| 2026-04-13 21:34 | 24.48445 | 48.07091 | 37099 ft | 539 kts | 120° |
| 2026-04-13 21:35 | 24.45722 | 48.14715 | 37097 ft | 540 kts | 120° |
| 2026-04-13 21:36 | 24.41594 | 48.26248 | 37092 ft | 541 kts | 119° |
| 2026-04-13 21:36 | 24.38832 | 48.33946 | 37092 ft | 542 kts | 119° |
| 2026-04-13 21:37 | 24.36057 | 48.41665 | 37085 ft | 544 kts | 119° |
| 2026-04-13 21:37 | 24.33276 | 48.49390 | 37083 ft | 545 kts | 119° |
| 2026-04-13 21:38 | 24.30485 | 48.57127 | 37076 ft | 546 kts | 119° |
| 2026-04-13 21:38 | 24.27705 | 48.64819 | 37077 ft | 547 kts | 120° |
| 2026-04-13 21:39 | 24.24894 | 48.72582 | 37072 ft | 548 kts | 120° |
| 2026-04-13 21:39 | 24.22074 | 48.80356 | 37068 ft | 549 kts | 120° |
| 2026-04-13 21:40 | 24.19244 | 48.88142 | 37067 ft | 550 kts | 120° |
| 2026-04-13 21:40 | 24.16423 | 48.95892 | 37072 ft | 550 kts | 120° |
| 2026-04-13 21:41 | 24.13574 | 49.03704 | 37067 ft | 551 kts | 120° |
| 2026-04-13 21:41 | 24.10725 | 49.11500 | 37066 ft | 552 kts | 119° |
| 2026-04-13 21:42 | 24.07868 | 49.19304 | 37068 ft | 552 kts | 119° |
| 2026-04-13 21:42 | 24.05019 | 49.27073 | 37067 ft | 553 kts | 119° |
| 2026-04-13 21:43 | 24.02146 | 49.34890 | 37067 ft | 553 kts | 119° |
| 2026-04-13 21:43 | 23.99266 | 49.42714 | 37065 ft | 554 kts | 119° |
| 2026-04-13 21:44 | 23.96385 | 49.50526 | 37059 ft | 554 kts | 119° |
| 2026-04-13 21:44 | 23.93495 | 49.58349 | 37061 ft | 555 kts | 119° |
| 2026-04-13 21:45 | 23.90617 | 49.66123 | 37062 ft | 555 kts | 119° |
| 2026-04-13 21:45 | 23.87715 | 49.73952 | 37058 ft | 556 kts | 119° |
| 2026-04-13 21:46 | 23.84802 | 49.81793 | 37056 ft | 557 kts | 118° |
| 2026-04-13 21:46 | 23.81873 | 49.89663 | 37050 ft | 558 kts | 118° |
| 2026-04-13 21:47 | 23.78956 | 49.97486 | 37052 ft | 559 kts | 119° |
| 2026-04-13 21:47 | 23.76020 | 50.05348 | 37048 ft | 560 kts | 119° |
| 2026-04-13 21:48 | 23.73070 | 50.13234 | 37055 ft | 560 kts | 119° |
| 2026-04-13 21:48 | 23.70116 | 50.21115 | 37045 ft | 560 kts | 119° |
| 2026-04-13 21:49 | 23.67175 | 50.28948 | 37048 ft | 560 kts | 119° |
| 2026-04-13 21:49 | 23.64217 | 50.36813 | 37043 ft | 559 kts | 119° |
| 2026-04-13 21:50 | 23.61261 | 50.44659 | 37038 ft | 558 kts | 119° |
| 2026-04-13 21:50 | 23.58326 | 50.52430 | 37037 ft | 557 kts | 119° |
| 2026-04-13 21:51 | 23.55367 | 50.60253 | 37041 ft | 557 kts | 119° |
| 2026-04-13 21:51 | 23.52910 | 50.66740 | 37043 ft | 557 kts | 120° |
| 2026-04-13 21:52 | 23.49443 | 50.75873 | 37041 ft | 557 kts | 119° |
| 2026-04-13 21:52 | 23.46974 | 50.82368 | 37040 ft | 558 kts | 119° |
| 2026-04-13 21:53 | 23.44002 | 50.90173 | 37031 ft | 558 kts | 119° |
| 2026-04-13 21:53 | 23.41025 | 50.97979 | 37034 ft | 558 kts | 119° |
| 2026-04-13 21:54 | 23.38065 | 51.05728 | 37029 ft | 557 kts | 120° |
| 2026-04-13 21:54 | 23.35085 | 51.13513 | 37029 ft | 556 kts | 120° |
| 2026-04-13 21:55 | 23.32103 | 51.21290 | 37038 ft | 556 kts | 120° |
| 2026-04-13 21:55 | 23.29123 | 51.29050 | 37022 ft | 555 kts | 120° |
| 2026-04-13 21:56 | 23.26141 | 51.36801 | 37035 ft | 554 kts | 119° |
| 2026-04-13 21:56 | 23.23183 | 51.44474 | 37027 ft | 554 kts | 119° |
| 2026-04-13 21:57 | 23.20184 | 51.52241 | 37030 ft | 553 kts | 119° |
| 2026-04-13 21:57 | 23.17223 | 51.59897 | 37030 ft | 553 kts | 119° |
| 2026-04-13 21:58 | 23.14239 | 51.67601 | 37029 ft | 553 kts | 119° |
| 2026-04-13 21:58 | 23.11248 | 51.75309 | 37031 ft | 552 kts | 119° |
| 2026-04-13 21:59 | 23.08282 | 51.82939 | 37025 ft | 552 kts | 119° |
| 2026-04-13 21:59 | 23.05295 | 51.90614 | 37024 ft | 551 kts | 119° |
| 2026-04-13 22:00 | 23.02305 | 51.98279 | 37021 ft | 550 kts | 119° |
| 2026-04-13 22:00 | 22.99311 | 52.05942 | 37023 ft | 550 kts | 119° |
| 2026-04-13 22:01 | 22.96319 | 52.13587 | 37019 ft | 550 kts | 118° |
| 2026-04-13 22:01 | 22.93343 | 52.21180 | 37020 ft | 550 kts | 118° |
| 2026-04-13 22:02 | 22.90339 | 52.28832 | 37015 ft | 550 kts | 118° |
| 2026-04-13 22:02 | 22.87352 | 52.36431 | 37016 ft | 550 kts | 118° |
| 2026-04-13 22:03 | 22.84349 | 52.44073 | 37017 ft | 551 kts | 117° |
| 2026-04-13 22:03 | 22.82048 | 52.52074 | 37017 ft | 559 kts | 107° |
| 2026-04-13 22:04 | 22.80881 | 52.60461 | 37023 ft | 563 kts | 101° |
| 2026-04-13 22:04 | 22.79948 | 52.68920 | 37019 ft | 564 kts | 101° |
| 2026-04-13 22:05 | 22.78987 | 52.77297 | 37011 ft | 563 kts | 101° |
| 2026-04-13 22:05 | 22.77970 | 52.85717 | 37013 ft | 562 kts | 102° |
| 2026-04-13 22:06 | 22.76937 | 52.94108 | 37010 ft | 561 kts | 102° |
| 2026-04-13 22:06 | 22.75903 | 53.02489 | 37018 ft | 560 kts | 102° |
| 2026-04-13 22:07 | 22.74869 | 53.10856 | 37012 ft | 560 kts | 102° |
| 2026-04-13 22:07 | 22.73840 | 53.19171 | 37012 ft | 560 kts | 102° |
| 2026-04-13 22:08 | 22.72799 | 53.27536 | 37012 ft | 559 kts | 102° |
| 2026-04-13 22:08 | 22.71755 | 53.35890 | 37012 ft | 560 kts | 102° |
| 2026-04-13 22:09 | 22.70703 | 53.44268 | 37013 ft | 561 kts | 102° |
| 2026-04-13 22:09 | 22.69654 | 53.52589 | 37014 ft | 561 kts | 102° |
| 2026-04-13 22:10 | 22.68593 | 53.60979 | 37013 ft | 562 kts | 102° |
| 2026-04-13 22:10 | 22.67526 | 53.69371 | 37006 ft | 563 kts | 102° |
| 2026-04-13 22:11 | 22.66459 | 53.77730 | 37006 ft | 563 kts | 102° |
| 2026-04-13 22:11 | 22.65381 | 53.86139 | 37019 ft | 564 kts | 102° |
| 2026-04-13 22:12 | 22.64298 | 53.94547 | 37018 ft | 564 kts | 102° |
| 2026-04-13 22:12 | 22.63210 | 54.02964 | 37000 ft | 564 kts | 103° |
| 2026-04-13 22:13 | 22.62119 | 54.11370 | 37014 ft | 564 kts | 103° |
| 2026-04-13 22:13 | 22.61023 | 54.19777 | 37010 ft | 564 kts | 103° |
| 2026-04-13 22:14 | 22.59929 | 54.28136 | 36993 ft | 564 kts | 103° |
| 2026-04-13 22:14 | 22.58824 | 54.36545 | 37012 ft | 563 kts | 103° |
| 2026-04-13 22:15 | 22.57715 | 54.44947 | 37005 ft | 563 kts | 103° |
| 2026-04-13 22:15 | 22.56608 | 54.53295 | 37001 ft | 563 kts | 103° |
| 2026-04-13 22:16 | 22.55492 | 54.61685 | 37002 ft | 563 kts | 103° |
| 2026-04-13 22:16 | 22.54369 | 54.70090 | 37008 ft | 564 kts | 103° |
| 2026-04-13 22:17 | 22.53240 | 54.78514 | 37002 ft | 565 kts | 103° |
| 2026-04-13 22:17 | 22.52105 | 54.86928 | 36998 ft | 566 kts | 103° |
| 2026-04-13 22:18 | 22.50967 | 54.95349 | 36993 ft | 566 kts | 103° |
| 2026-04-13 22:18 | 22.49830 | 55.03725 | 36993 ft | 566 kts | 103° |
| 2026-04-13 22:19 | 22.48680 | 55.12162 | 36994 ft | 567 kts | 103° |
| 2026-04-13 22:19 | 22.47527 | 55.20593 | 36994 ft | 567 kts | 103° |
| 2026-04-13 22:20 | 22.46370 | 55.29022 | 37002 ft | 567 kts | 103° |
| 2026-04-13 22:20 | 22.46076 | 55.37593 | 36997 ft | 575 kts | 88° |
| 2026-04-13 22:21 | 22.47472 | 55.46054 | 36995 ft | 579 kts | 74° |
| 2026-04-13 22:21 | 22.49945 | 55.54359 | 36994 ft | 580 kts | 72° |
| 2026-04-13 22:22 | 22.52472 | 55.62652 | 37003 ft | 580 kts | 73° |
| 2026-04-13 22:22 | 22.54921 | 55.70971 | 37005 ft | 581 kts | 73° |
| 2026-04-13 22:23 | 22.57321 | 55.79316 | 37004 ft | 581 kts | 74° |
| 2026-04-13 22:23 | 22.59716 | 55.87679 | 37006 ft | 581 kts | 74° |
| 2026-04-13 22:24 | 22.62117 | 55.96053 | 37008 ft | 581 kts | 74° |
| 2026-04-13 22:24 | 22.64500 | 56.04368 | 37008 ft | 581 kts | 74° |
| 2026-04-13 22:25 | 22.66896 | 56.12740 | 37014 ft | 582 kts | 74° |
| 2026-04-13 22:25 | 22.69290 | 56.21130 | 37016 ft | 582 kts | 74° |
| 2026-04-13 22:26 | 22.71661 | 56.29460 | 37019 ft | 582 kts | 74° |
| 2026-04-13 22:26 | 22.74042 | 56.37839 | 37028 ft | 581 kts | 74° |
| 2026-04-13 22:27 | 22.76409 | 56.46189 | 37024 ft | 579 kts | 74° |
| 2026-04-13 22:27 | 22.78768 | 56.54528 | 37022 ft | 578 kts | 74° |
| 2026-04-13 22:28 | 22.81121 | 56.62867 | 37034 ft | 577 kts | 74° |
| 2026-04-13 22:28 | 22.83451 | 56.71142 | 37042 ft | 577 kts | 74° |
| 2026-04-13 22:29 | 22.85794 | 56.79479 | 37046 ft | 577 kts | 74° |
| 2026-04-13 22:29 | 22.88131 | 56.87813 | 37052 ft | 578 kts | 75° |
| 2026-04-13 22:30 | 22.90467 | 56.96162 | 37057 ft | 578 kts | 74° |
| 2026-04-13 22:30 | 22.92801 | 57.04527 | 37065 ft | 578 kts | 75° |
| 2026-04-13 22:31 | 22.95114 | 57.12829 | 37077 ft | 578 kts | 75° |
| 2026-04-13 22:31 | 22.97438 | 57.21192 | 37084 ft | 579 kts | 75° |
| 2026-04-13 22:32 | 22.99545 | 57.29620 | 37081 ft | 577 kts | 81° |
| 2026-04-13 22:32 | 23.00487 | 57.38217 | 37084 ft | 571 kts | 92° |
| 2026-04-13 22:33 | 23.00677 | 57.46798 | 37082 ft | 571 kts | 92° |
| 2026-04-13 22:33 | 23.00883 | 57.55426 | 37082 ft | 571 kts | 92° |
| 2026-04-13 22:34 | 23.01422 | 57.72718 | 37054 ft | 573 kts | 91° |
| 2026-04-13 22:35 | 23.01683 | 57.81298 | 37067 ft | 570 kts | 92° |
| 2026-04-13 22:35 | 23.01882 | 57.89887 | 37065 ft | 568 kts | 94° |
| 2026-04-13 22:36 | 23.01867 | 57.98463 | 37043 ft | 568 kts | 94° |
| 2026-04-13 22:36 | 23.01823 | 58.07055 | 37055 ft | 568 kts | 94° |
| 2026-04-13 22:37 | 23.01813 | 58.15660 | 37040 ft | 569 kts | 94° |
| 2026-04-13 22:37 | 23.01815 | 58.24274 | 37038 ft | 570 kts | 94° |
| 2026-04-13 22:38 | 23.01808 | 58.32886 | 37037 ft | 571 kts | 94° |
| 2026-04-13 22:38 | 23.01836 | 58.41470 | 37037 ft | 571 kts | 92° |
| 2026-04-13 22:39 | 23.02121 | 58.50102 | 37011 ft | 571 kts | 90° |
| 2026-04-13 22:39 | 23.02500 | 58.58728 | 37017 ft | 573 kts | 91° |
| 2026-04-13 22:40 | 23.02816 | 58.67378 | 36987 ft | 574 kts | 91° |
| 2026-04-13 22:40 | 23.03087 | 58.75978 | 37011 ft | 574 kts | 91° |
| 2026-04-13 22:41 | 23.03355 | 58.84660 | 37001 ft | 575 kts | 91° |
| 2026-04-13 22:41 | 23.03582 | 58.91884 | 37002 ft | 575 kts | 92° |
| 2026-04-13 22:42 | 23.03852 | 59.00555 | 36996 ft | 571 kts | 91° |
| 2026-04-13 22:42 | 23.04107 | 59.09199 | 36977 ft | 573 kts | 91° |
| 2026-04-13 22:43 | 23.04355 | 59.17867 | 36979 ft | 574 kts | 91° |
| 2026-04-13 22:43 | 23.04601 | 59.26545 | 36959 ft | 575 kts | 91° |
| 2026-04-13 22:44 | 23.04844 | 59.35227 | 36961 ft | 575 kts | 91° |
| 2026-04-13 22:44 | 23.05042 | 59.43902 | 36948 ft | 574 kts | 92° |
| 2026-04-13 22:45 | 23.05163 | 59.52530 | 36946 ft | 574 kts | 92° |
| 2026-04-13 22:45 | 23.05282 | 59.61195 | 36947 ft | 574 kts | 92° |
| 2026-04-13 22:46 | 23.05412 | 59.69855 | 36945 ft | 573 kts | 92° |
| 2026-04-13 22:46 | 23.05539 | 59.78519 | 36950 ft | 573 kts | 92° |
| 2026-04-13 22:47 | 23.05661 | 59.87178 | 36951 ft | 573 kts | 92° |
| 2026-04-13 22:47 | 23.05772 | 59.95839 | 36951 ft | 573 kts | 92° |
| 2026-04-13 22:48 | 23.05867 | 60.04442 | 36953 ft | 573 kts | 92° |
| 2026-04-13 22:48 | 23.05957 | 60.13103 | 36946 ft | 573 kts | 92° |
| 2026-04-13 22:49 | 23.06044 | 60.21755 | 36950 ft | 573 kts | 92° |
| 2026-04-13 22:49 | 23.06128 | 60.30425 | 36948 ft | 573 kts | 92° |
| 2026-04-13 22:50 | 23.06207 | 60.39079 | 36948 ft | 573 kts | 92° |
| 2026-04-13 22:50 | 23.06280 | 60.47681 | 36946 ft | 573 kts | 92° |
| 2026-04-13 22:51 | 23.06349 | 60.56332 | 36943 ft | 573 kts | 92° |
| 2026-04-13 22:51 | 23.06415 | 60.65000 | 36940 ft | 573 kts | 92° |
| 2026-04-13 22:52 | 23.06483 | 60.73657 | 36938 ft | 573 kts | 92° |
| 2026-04-13 22:52 | 23.06551 | 60.82313 | 36943 ft | 573 kts | 92° |
| 2026-04-13 22:53 | 23.06613 | 60.90913 | 36936 ft | 573 kts | 92° |
| 2026-04-13 22:53 | 23.06670 | 60.99566 | 36937 ft | 572 kts | 92° |
| 2026-04-13 22:54 | 23.06721 | 61.08218 | 36936 ft | 572 kts | 92° |
| 2026-04-13 22:54 | 23.06768 | 61.16879 | 36933 ft | 572 kts | 92° |
| 2026-04-13 22:55 | 23.06811 | 61.25522 | 36935 ft | 572 kts | 92° |
| 2026-04-13 22:55 | 23.06848 | 61.34114 | 36929 ft | 572 kts | 92° |
| 2026-04-13 22:56 | 23.06881 | 61.42751 | 36928 ft | 571 kts | 92° |
| 2026-04-13 22:56 | 23.06911 | 61.51389 | 36933 ft | 571 kts | 92° |
| 2026-04-13 22:57 | 23.06949 | 61.60012 | 36926 ft | 571 kts | 92° |
| 2026-04-13 22:57 | 23.06984 | 61.68656 | 36929 ft | 571 kts | 92° |
| 2026-04-13 22:58 | 23.07009 | 61.77232 | 36924 ft | 571 kts | 92° |
| 2026-04-13 22:58 | 23.07014 | 61.85857 | 36923 ft | 571 kts | 93° |
| 2026-04-13 22:59 | 23.07010 | 61.94482 | 36931 ft | 571 kts | 93° |
| 2026-04-13 22:59 | 23.07003 | 62.03102 | 36925 ft | 570 kts | 93° |
| 2026-04-13 23:00 | 23.06994 | 62.11663 | 36929 ft | 570 kts | 93° |
| 2026-04-13 23:00 | 23.06983 | 62.20236 | 36907 ft | 557 kts | 93° |
| 2026-04-13 23:00 | 23.06979 | 62.24380 | 36902 ft | 540 kts | 93° |
| 2026-04-13 23:01 | 23.06974 | 62.28391 | 36902 ft | 524 kts | 93° |
| 2026-04-13 23:01 | 23.06953 | 62.36213 | 36918 ft | 517 kts | 93° |
| 2026-04-13 23:02 | 23.06922 | 62.44026 | 36927 ft | 517 kts | 93° |
| 2026-04-13 23:02 | 23.06890 | 62.51836 | 36920 ft | 517 kts | 93° |
| 2026-04-13 23:03 | 23.06858 | 62.59650 | 36919 ft | 517 kts | 93° |
| 2026-04-13 23:03 | 23.06823 | 62.67461 | 36926 ft | 518 kts | 93° |
| 2026-04-13 23:04 | 23.06783 | 62.75235 | 36915 ft | 518 kts | 93° |
| 2026-04-13 23:04 | 23.06740 | 62.83055 | 36912 ft | 518 kts | 93° |
| 2026-04-13 23:05 | 23.06693 | 62.90868 | 36924 ft | 517 kts | 93° |
| 2026-04-13 23:05 | 23.06641 | 62.98694 | 36909 ft | 517 kts | 93° |
| 2026-04-13 23:06 | 23.06586 | 63.06505 | 36906 ft | 516 kts | 93° |
| 2026-04-13 23:06 | 23.06528 | 63.14307 | 36912 ft | 516 kts | 93° |
| 2026-04-13 23:07 | 23.06465 | 63.22101 | 36918 ft | 515 kts | 93° |
| 2026-04-13 23:07 | 23.06399 | 63.29880 | 36914 ft | 515 kts | 93° |
| 2026-04-13 23:08 | 23.06329 | 63.37654 | 36916 ft | 514 kts | 93° |
| 2026-04-13 23:08 | 23.06256 | 63.45367 | 36915 ft | 514 kts | 93° |
| 2026-04-13 23:09 | 23.06178 | 63.53127 | 36913 ft | 514 kts | 93° |
| 2026-04-13 23:09 | 23.06097 | 63.60893 | 36909 ft | 513 kts | 93° |
| 2026-04-13 23:10 | 23.06012 | 63.68649 | 36909 ft | 513 kts | 93° |
| 2026-04-13 23:10 | 23.05924 | 63.76396 | 36909 ft | 513 kts | 93° |
| 2026-04-13 23:11 | 23.05604 | 63.84063 | 36913 ft | 509 kts | 102° |
| 2026-04-13 23:11 | 23.04032 | 63.91497 | 36912 ft | 501 kts | 113° |
| 2026-04-13 23:12 | 23.01476 | 63.98486 | 36917 ft | 497 kts | 118° |
| 2026-04-13 23:12 | 22.98789 | 64.05418 | 36910 ft | 498 kts | 118° |
| 2026-04-13 23:13 | 22.96122 | 64.12371 | 36907 ft | 499 kts | 117° |
| 2026-04-13 23:13 | 22.93499 | 64.19289 | 36907 ft | 499 kts | 117° |
| 2026-04-13 23:14 | 22.90863 | 64.26262 | 36908 ft | 499 kts | 117° |
| 2026-04-13 23:14 | 22.88216 | 64.33253 | 36905 ft | 499 kts | 117° |
| 2026-04-13 23:15 | 22.85588 | 64.40177 | 36906 ft | 499 kts | 117° |
| 2026-04-13 23:15 | 22.82935 | 64.47152 | 36900 ft | 499 kts | 117° |
| 2026-04-13 23:16 | 22.80286 | 64.54110 | 36902 ft | 499 kts | 117° |
| 2026-04-13 23:16 | 22.77632 | 64.61066 | 36902 ft | 499 kts | 117° |
| 2026-04-13 23:17 | 22.74990 | 64.67981 | 36899 ft | 498 kts | 117° |
| 2026-04-13 23:17 | 22.72337 | 64.74916 | 36903 ft | 498 kts | 117° |
| 2026-04-13 23:18 | 22.69680 | 64.81851 | 36901 ft | 498 kts | 117° |
| 2026-04-13 23:18 | 22.67023 | 64.88775 | 36903 ft | 497 kts | 117° |
| 2026-04-13 23:19 | 22.64381 | 64.95650 | 36902 ft | 497 kts | 117° |
| 2026-04-13 23:19 | 22.61720 | 65.02562 | 36901 ft | 497 kts | 117° |
| 2026-04-13 23:20 | 22.59057 | 65.09470 | 36903 ft | 497 kts | 117° |
| 2026-04-13 23:20 | 22.56391 | 65.16376 | 36902 ft | 496 kts | 117° |
| 2026-04-13 23:21 | 22.53738 | 65.23236 | 36899 ft | 496 kts | 117° |
| 2026-04-13 23:21 | 22.51071 | 65.30125 | 36901 ft | 496 kts | 117° |
| 2026-04-13 23:22 | 22.48398 | 65.37018 | 36900 ft | 496 kts | 117° |
| 2026-04-13 23:22 | 22.45726 | 65.43899 | 36898 ft | 496 kts | 117° |
| 2026-04-13 23:23 | 22.43071 | 65.50724 | 36899 ft | 495 kts | 117° |
| 2026-04-13 23:23 | 22.40391 | 65.57604 | 36904 ft | 495 kts | 117° |
| 2026-04-13 23:24 | 22.37713 | 65.64470 | 36894 ft | 495 kts | 117° |
| 2026-04-13 23:24 | 22.33711 | 65.74712 | 36901 ft | 495 kts | 117° |
| 2026-04-13 23:25 | 22.31030 | 65.81559 | 36901 ft | 495 kts | 117° |
| 2026-04-13 23:25 | 22.28346 | 65.88405 | 36903 ft | 495 kts | 117° |
| 2026-04-13 23:26 | 22.25656 | 65.95257 | 36900 ft | 495 kts | 117° |
| 2026-04-13 23:26 | 22.23421 | 66.00942 | 36902 ft | 495 kts | 117° |
| 2026-04-13 23:27 | 22.20276 | 66.08929 | 36903 ft | 495 kts | 117° |
| 2026-04-13 23:27 | 22.17600 | 66.15717 | 36900 ft | 494 kts | 117° |
| 2026-04-13 23:28 | 22.15356 | 66.21398 | 36906 ft | 494 kts | 117° |
| 2026-04-13 23:28 | 22.12658 | 66.28224 | 36902 ft | 494 kts | 117° |
| 2026-04-13 23:29 | 22.09952 | 66.35059 | 36905 ft | 494 kts | 117° |
| 2026-04-13 23:29 | 22.07251 | 66.41873 | 36905 ft | 494 kts | 117° |
| 2026-04-13 23:30 | 22.04548 | 66.48683 | 36900 ft | 494 kts | 117° |
| 2026-04-13 23:30 | 22.01841 | 66.55484 | 36902 ft | 493 kts | 117° |
| 2026-04-13 23:31 | 21.99152 | 66.62229 | 36903 ft | 493 kts | 117° |
| 2026-04-13 23:31 | 21.96437 | 66.69034 | 36901 ft | 493 kts | 117° |
| 2026-04-13 23:32 | 21.95078 | 66.72437 | 37030 ft | 496 kts | 117° |
| 2026-04-13 23:32 | 21.93718 | 66.75841 | 37500 ft | 494 kts | 117° |
| 2026-04-13 23:32 | 21.93274 | 66.76950 | 37672 ft | 493 kts | 117° |